<?xml version="1.0" encoding="UTF-8" standalone="no" ?>
<gpx xmlns="http://www.topografix.com/GPX/1/1" xmlns:xsi="http://www.w3.org/2001/XMLSchema-instance" xsi:schemaLocation="http://www.topografix.com/GPX/1/1 http://www.topografix.com/GPX/1/1/gpx.xsd" version="1.1" creator="VisuGPX - https://www.visugpx.com">
  <metadata>
    <name> Alboussiere 17km</name>
    <desc><![CDATA[J4 ]]></desc>
  </metadata>
  <wpt lat="44.95727" lon="4.71605">
    <ele>541.4</ele>
    <name><![CDATA[Les Cochons d'Avril]]></name>
    <type><![CDATA[hotel]]></type>
  </wpt>
  <trk>
    <name><![CDATA[2024-05-12 12:34:28]]></name>
    <extensions>
      <line xmlns="http://www.topografix.com/GPX/gpx_style/0/2">
        <color>0000FF</color>
        <width>4</width>
      </line>
    </extensions>
    <trkseg>
      <trkpt lat="44.95472" lon="4.71464">
        <ele>560.11</ele>
        <time>2024-05-11T14:59:30Z</time>
      </trkpt>
      <trkpt lat="44.95476" lon="4.71462">
        <ele>560.11</ele>
        <time>2024-05-11T14:59:53Z</time>
      </trkpt>
      <trkpt lat="44.95471" lon="4.71461">
        <ele>560.59</ele>
        <time>2024-05-12T07:11:13Z</time>
      </trkpt>
      <trkpt lat="44.95475" lon="4.7146">
        <ele>555.78</ele>
        <time>2024-05-12T07:11:34Z</time>
      </trkpt>
      <trkpt lat="44.95477" lon="4.71464">
        <ele>563.95</ele>
        <time>2024-05-12T07:11:54Z</time>
      </trkpt>
      <trkpt lat="44.9548" lon="4.71468">
        <ele>570.2</ele>
        <time>2024-05-12T07:12:19Z</time>
      </trkpt>
      <trkpt lat="44.9548" lon="4.71462">
        <ele>563.95</ele>
        <time>2024-05-12T07:12:39Z</time>
      </trkpt>
      <trkpt lat="44.95477" lon="4.71464">
        <ele>561.07</ele>
        <time>2024-05-12T07:13:07Z</time>
      </trkpt>
      <trkpt lat="44.9548" lon="4.71461">
        <ele>559.62</ele>
        <time>2024-05-12T07:13:24Z</time>
      </trkpt>
      <trkpt lat="44.95479" lon="4.71469">
        <ele>559.62</ele>
        <time>2024-05-12T07:13:38Z</time>
      </trkpt>
      <trkpt lat="44.95477" lon="4.71467">
        <ele>559.14</ele>
        <time>2024-05-12T07:13:51Z</time>
      </trkpt>
      <trkpt lat="44.95476" lon="4.71464">
        <ele>559.14</ele>
        <time>2024-05-12T07:14:08Z</time>
      </trkpt>
      <trkpt lat="44.95477" lon="4.7146">
        <ele>562.51</ele>
        <time>2024-05-12T07:14:33Z</time>
      </trkpt>
      <trkpt lat="44.95481" lon="4.71465">
        <ele>561.55</ele>
        <time>2024-05-12T07:14:48Z</time>
      </trkpt>
      <trkpt lat="44.95482" lon="4.71468">
        <ele>562.03</ele>
        <time>2024-05-12T07:15:19Z</time>
      </trkpt>
      <trkpt lat="44.95479" lon="4.71468">
        <ele>557.7</ele>
        <time>2024-05-12T07:15:39Z</time>
      </trkpt>
      <trkpt lat="44.95484" lon="4.71469">
        <ele>559.62</ele>
        <time>2024-05-12T07:15:58Z</time>
      </trkpt>
      <trkpt lat="44.95488" lon="4.71472">
        <ele>561.55</ele>
        <time>2024-05-12T07:16:24Z</time>
      </trkpt>
      <trkpt lat="44.95486" lon="4.71474">
        <ele>560.59</ele>
        <time>2024-05-12T07:16:54Z</time>
      </trkpt>
      <trkpt lat="44.95489" lon="4.71473">
        <ele>563.95</ele>
        <time>2024-05-12T07:17:21Z</time>
      </trkpt>
      <trkpt lat="44.95489" lon="4.71477">
        <ele>565.87</ele>
        <time>2024-05-12T07:17:36Z</time>
      </trkpt>
      <trkpt lat="44.95492" lon="4.71485">
        <ele>567.32</ele>
        <time>2024-05-12T07:17:50Z</time>
      </trkpt>
      <trkpt lat="44.95498" lon="4.71499">
        <ele>567.32</ele>
        <time>2024-05-12T07:18:02Z</time>
      </trkpt>
      <trkpt lat="44.95501" lon="4.71508">
        <ele>566.83</ele>
        <time>2024-05-12T07:18:08Z</time>
      </trkpt>
      <trkpt lat="44.95521" lon="4.71513">
        <ele>563.95</ele>
        <time>2024-05-12T07:18:25Z</time>
      </trkpt>
      <trkpt lat="44.95547" lon="4.71513">
        <ele>563.95</ele>
        <time>2024-05-12T07:18:44Z</time>
      </trkpt>
      <trkpt lat="44.95569" lon="4.71526">
        <ele>559.62</ele>
        <time>2024-05-12T07:19:02Z</time>
      </trkpt>
      <trkpt lat="44.95582" lon="4.71531">
        <ele>558.18</ele>
        <time>2024-05-12T07:19:14Z</time>
      </trkpt>
      <trkpt lat="44.95604" lon="4.71538">
        <ele>555.78</ele>
        <time>2024-05-12T07:19:31Z</time>
      </trkpt>
      <trkpt lat="44.95626" lon="4.71541">
        <ele>553.86</ele>
        <time>2024-05-12T07:19:48Z</time>
      </trkpt>
      <trkpt lat="44.95637" lon="4.71542">
        <ele>552.41</ele>
        <time>2024-05-12T07:19:59Z</time>
      </trkpt>
      <trkpt lat="44.95643" lon="4.71552">
        <ele>550.01</ele>
        <time>2024-05-12T07:20:10Z</time>
      </trkpt>
      <trkpt lat="44.95644" lon="4.71562">
        <ele>549.53</ele>
        <time>2024-05-12T07:20:14Z</time>
      </trkpt>
      <trkpt lat="44.95652" lon="4.71584">
        <ele>548.57</ele>
        <time>2024-05-12T07:20:29Z</time>
      </trkpt>
      <trkpt lat="44.95663" lon="4.71595">
        <ele>550.01</ele>
        <time>2024-05-12T07:20:45Z</time>
      </trkpt>
      <trkpt lat="44.95664" lon="4.71601">
        <ele>551.45</ele>
        <time>2024-05-12T07:21:13Z</time>
      </trkpt>
      <trkpt lat="44.95669" lon="4.7161">
        <ele>549.05</ele>
        <time>2024-05-12T07:21:40Z</time>
      </trkpt>
      <trkpt lat="44.95676" lon="4.71625">
        <ele>549.53</ele>
        <time>2024-05-12T07:21:49Z</time>
      </trkpt>
      <trkpt lat="44.95682" lon="4.71635">
        <ele>550.49</ele>
        <time>2024-05-12T07:21:55Z</time>
      </trkpt>
      <trkpt lat="44.95699" lon="4.71661">
        <ele>553.86</ele>
        <time>2024-05-12T07:22:15Z</time>
      </trkpt>
      <trkpt lat="44.95715" lon="4.71682">
        <ele>558.66</ele>
        <time>2024-05-12T07:22:33Z</time>
      </trkpt>
      <trkpt lat="44.95735" lon="4.71702">
        <ele>562.03</ele>
        <time>2024-05-12T07:22:50Z</time>
      </trkpt>
      <trkpt lat="44.95756" lon="4.71743">
        <ele>562.03</ele>
        <time>2024-05-12T07:23:13Z</time>
      </trkpt>
      <trkpt lat="44.95769" lon="4.71786">
        <ele>561.07</ele>
        <time>2024-05-12T07:23:36Z</time>
      </trkpt>
      <trkpt lat="44.95779" lon="4.71817">
        <ele>562.51</ele>
        <time>2024-05-12T07:23:56Z</time>
      </trkpt>
      <trkpt lat="44.95779" lon="4.71818">
        <ele>562.03</ele>
        <time>2024-05-12T07:23:57Z</time>
      </trkpt>
      <trkpt lat="44.95777" lon="4.71825">
        <ele>561.55</ele>
        <time>2024-05-12T07:24:01Z</time>
      </trkpt>
      <trkpt lat="44.95759" lon="4.71846">
        <ele>565.87</ele>
        <time>2024-05-12T07:24:20Z</time>
      </trkpt>
      <trkpt lat="44.95738" lon="4.71864">
        <ele>570.68</ele>
        <time>2024-05-12T07:24:36Z</time>
      </trkpt>
      <trkpt lat="44.95725" lon="4.71877">
        <ele>571.64</ele>
        <time>2024-05-12T07:24:48Z</time>
      </trkpt>
      <trkpt lat="44.95722" lon="4.71884">
        <ele>572.12</ele>
        <time>2024-05-12T07:24:52Z</time>
      </trkpt>
      <trkpt lat="44.95706" lon="4.71903">
        <ele>575.49</ele>
        <time>2024-05-12T07:25:07Z</time>
      </trkpt>
      <trkpt lat="44.95685" lon="4.71919">
        <ele>579.81</ele>
        <time>2024-05-12T07:25:23Z</time>
      </trkpt>
      <trkpt lat="44.95662" lon="4.71926">
        <ele>583.66</ele>
        <time>2024-05-12T07:25:39Z</time>
      </trkpt>
      <trkpt lat="44.9564" lon="4.71931">
        <ele>587.5</ele>
        <time>2024-05-12T07:25:55Z</time>
      </trkpt>
      <trkpt lat="44.95618" lon="4.71941">
        <ele>587.98</ele>
        <time>2024-05-12T07:26:11Z</time>
      </trkpt>
      <trkpt lat="44.95598" lon="4.7195">
        <ele>589.43</ele>
        <time>2024-05-12T07:26:27Z</time>
      </trkpt>
      <trkpt lat="44.95597" lon="4.7195">
        <ele>589.43</ele>
        <time>2024-05-12T07:26:28Z</time>
      </trkpt>
      <trkpt lat="44.95584" lon="4.71954">
        <ele>589.43</ele>
        <time>2024-05-12T07:26:39Z</time>
      </trkpt>
      <trkpt lat="44.95569" lon="4.71969">
        <ele>591.83</ele>
        <time>2024-05-12T07:26:53Z</time>
      </trkpt>
      <trkpt lat="44.9556" lon="4.71977">
        <ele>593.75</ele>
        <time>2024-05-12T07:27:02Z</time>
      </trkpt>
      <trkpt lat="44.95544" lon="4.72">
        <ele>597.12</ele>
        <time>2024-05-12T07:27:18Z</time>
      </trkpt>
      <trkpt lat="44.95527" lon="4.7203">
        <ele>600</ele>
        <time>2024-05-12T07:27:36Z</time>
      </trkpt>
      <trkpt lat="44.95535" lon="4.72054">
        <ele>600.96</ele>
        <time>2024-05-12T07:27:52Z</time>
      </trkpt>
      <trkpt lat="44.95535" lon="4.72056">
        <ele>600.48</ele>
        <time>2024-05-12T07:27:56Z</time>
      </trkpt>
      <trkpt lat="44.95527" lon="4.72077">
        <ele>599.04</ele>
        <time>2024-05-12T07:28:09Z</time>
      </trkpt>
      <trkpt lat="44.95525" lon="4.72116">
        <ele>596.64</ele>
        <time>2024-05-12T07:28:27Z</time>
      </trkpt>
      <trkpt lat="44.95525" lon="4.72125">
        <ele>596.64</ele>
        <time>2024-05-12T07:28:32Z</time>
      </trkpt>
      <trkpt lat="44.95525" lon="4.72156">
        <ele>595.67</ele>
        <time>2024-05-12T07:28:49Z</time>
      </trkpt>
      <trkpt lat="44.95523" lon="4.72193">
        <ele>595.67</ele>
        <time>2024-05-12T07:29:07Z</time>
      </trkpt>
      <trkpt lat="44.95523" lon="4.72229">
        <ele>595.19</ele>
        <time>2024-05-12T07:29:25Z</time>
      </trkpt>
      <trkpt lat="44.95524" lon="4.72254">
        <ele>594.23</ele>
        <time>2024-05-12T07:29:37Z</time>
      </trkpt>
      <trkpt lat="44.95523" lon="4.72286">
        <ele>595.67</ele>
        <time>2024-05-12T07:29:53Z</time>
      </trkpt>
      <trkpt lat="44.95522" lon="4.72317">
        <ele>597.12</ele>
        <time>2024-05-12T07:30:09Z</time>
      </trkpt>
      <trkpt lat="44.95518" lon="4.72353">
        <ele>596.64</ele>
        <time>2024-05-12T07:30:26Z</time>
      </trkpt>
      <trkpt lat="44.9551" lon="4.72387">
        <ele>595.19</ele>
        <time>2024-05-12T07:30:43Z</time>
      </trkpt>
      <trkpt lat="44.95507" lon="4.72413">
        <ele>592.79</ele>
        <time>2024-05-12T07:30:58Z</time>
      </trkpt>
      <trkpt lat="44.95516" lon="4.72452">
        <ele>587.98</ele>
        <time>2024-05-12T07:31:17Z</time>
      </trkpt>
      <trkpt lat="44.95526" lon="4.72474">
        <ele>584.14</ele>
        <time>2024-05-12T07:31:32Z</time>
      </trkpt>
      <trkpt lat="44.95526" lon="4.72477">
        <ele>583.66</ele>
        <time>2024-05-12T07:31:34Z</time>
      </trkpt>
      <trkpt lat="44.95538" lon="4.72501">
        <ele>579.81</ele>
        <time>2024-05-12T07:31:52Z</time>
      </trkpt>
      <trkpt lat="44.95544" lon="4.7251">
        <ele>578.37</ele>
        <time>2024-05-12T07:31:59Z</time>
      </trkpt>
      <trkpt lat="44.95562" lon="4.7255">
        <ele>578.37</ele>
        <time>2024-05-12T07:32:16Z</time>
      </trkpt>
      <trkpt lat="44.95576" lon="4.72586">
        <ele>579.33</ele>
        <time>2024-05-12T07:32:32Z</time>
      </trkpt>
      <trkpt lat="44.95593" lon="4.72615">
        <ele>578.37</ele>
        <time>2024-05-12T07:32:49Z</time>
      </trkpt>
      <trkpt lat="44.95613" lon="4.72648">
        <ele>577.41</ele>
        <time>2024-05-12T07:33:08Z</time>
      </trkpt>
      <trkpt lat="44.95619" lon="4.72684">
        <ele>577.41</ele>
        <time>2024-05-12T07:33:26Z</time>
      </trkpt>
      <trkpt lat="44.95623" lon="4.72715">
        <ele>578.37</ele>
        <time>2024-05-12T07:33:41Z</time>
      </trkpt>
      <trkpt lat="44.95617" lon="4.72743">
        <ele>579.33</ele>
        <time>2024-05-12T07:33:57Z</time>
      </trkpt>
      <trkpt lat="44.95602" lon="4.72786">
        <ele>582.7</ele>
        <time>2024-05-12T07:34:20Z</time>
      </trkpt>
      <trkpt lat="44.95595" lon="4.72818">
        <ele>584.62</ele>
        <time>2024-05-12T07:34:36Z</time>
      </trkpt>
      <trkpt lat="44.95587" lon="4.72856">
        <ele>586.06</ele>
        <time>2024-05-12T07:34:54Z</time>
      </trkpt>
      <trkpt lat="44.95576" lon="4.72886">
        <ele>587.02</ele>
        <time>2024-05-12T07:35:10Z</time>
      </trkpt>
      <trkpt lat="44.95568" lon="4.7292">
        <ele>588.46</ele>
        <time>2024-05-12T07:35:28Z</time>
      </trkpt>
      <trkpt lat="44.95564" lon="4.72964">
        <ele>589.43</ele>
        <time>2024-05-12T07:35:49Z</time>
      </trkpt>
      <trkpt lat="44.95565" lon="4.73012">
        <ele>592.31</ele>
        <time>2024-05-12T07:36:10Z</time>
      </trkpt>
      <trkpt lat="44.95565" lon="4.73039">
        <ele>592.79</ele>
        <time>2024-05-12T07:36:25Z</time>
      </trkpt>
      <trkpt lat="44.95542" lon="4.73045">
        <ele>587.98</ele>
        <time>2024-05-12T07:36:42Z</time>
      </trkpt>
      <trkpt lat="44.95517" lon="4.73052">
        <ele>582.7</ele>
        <time>2024-05-12T07:36:59Z</time>
      </trkpt>
      <trkpt lat="44.95492" lon="4.73068">
        <ele>582.7</ele>
        <time>2024-05-12T07:37:17Z</time>
      </trkpt>
      <trkpt lat="44.95466" lon="4.73077">
        <ele>581.73</ele>
        <time>2024-05-12T07:37:35Z</time>
      </trkpt>
      <trkpt lat="44.95441" lon="4.73084">
        <ele>579.81</ele>
        <time>2024-05-12T07:37:52Z</time>
      </trkpt>
      <trkpt lat="44.95428" lon="4.73068">
        <ele>576.93</ele>
        <time>2024-05-12T07:38:08Z</time>
      </trkpt>
      <trkpt lat="44.95429" lon="4.73066">
        <ele>576.93</ele>
        <time>2024-05-12T07:38:10Z</time>
      </trkpt>
      <trkpt lat="44.95433" lon="4.73023">
        <ele>576.45</ele>
        <time>2024-05-12T07:38:31Z</time>
      </trkpt>
      <trkpt lat="44.95438" lon="4.72985">
        <ele>575.49</ele>
        <time>2024-05-12T07:38:50Z</time>
      </trkpt>
      <trkpt lat="44.95425" lon="4.72958">
        <ele>574.04</ele>
        <time>2024-05-12T07:39:07Z</time>
      </trkpt>
      <trkpt lat="44.95412" lon="4.72929">
        <ele>570.68</ele>
        <time>2024-05-12T07:39:24Z</time>
      </trkpt>
      <trkpt lat="44.95413" lon="4.72898">
        <ele>569.24</ele>
        <time>2024-05-12T07:39:39Z</time>
      </trkpt>
      <trkpt lat="44.95407" lon="4.72863">
        <ele>568.28</ele>
        <time>2024-05-12T07:39:54Z</time>
      </trkpt>
      <trkpt lat="44.95397" lon="4.72825">
        <ele>566.35</ele>
        <time>2024-05-12T07:40:13Z</time>
      </trkpt>
      <trkpt lat="44.95395" lon="4.7282">
        <ele>566.35</ele>
        <time>2024-05-12T07:40:16Z</time>
      </trkpt>
      <trkpt lat="44.95386" lon="4.72795">
        <ele>564.43</ele>
        <time>2024-05-12T07:40:32Z</time>
      </trkpt>
      <trkpt lat="44.95385" lon="4.72793">
        <ele>564.43</ele>
        <time>2024-05-12T07:40:33Z</time>
      </trkpt>
      <trkpt lat="44.95367" lon="4.72756">
        <ele>564.91</ele>
        <time>2024-05-12T07:40:53Z</time>
      </trkpt>
      <trkpt lat="44.95346" lon="4.72736">
        <ele>563.95</ele>
        <time>2024-05-12T07:41:09Z</time>
      </trkpt>
      <trkpt lat="44.95315" lon="4.72721">
        <ele>565.87</ele>
        <time>2024-05-12T07:41:29Z</time>
      </trkpt>
      <trkpt lat="44.95284" lon="4.72701">
        <ele>567.8</ele>
        <time>2024-05-12T07:41:50Z</time>
      </trkpt>
      <trkpt lat="44.95259" lon="4.72676">
        <ele>567.8</ele>
        <time>2024-05-12T07:42:10Z</time>
      </trkpt>
      <trkpt lat="44.95235" lon="4.72668">
        <ele>569.72</ele>
        <time>2024-05-12T07:42:28Z</time>
      </trkpt>
      <trkpt lat="44.95212" lon="4.72681">
        <ele>569.72</ele>
        <time>2024-05-12T07:42:43Z</time>
      </trkpt>
      <trkpt lat="44.95198" lon="4.72731">
        <ele>569.72</ele>
        <time>2024-05-12T07:43:06Z</time>
      </trkpt>
      <trkpt lat="44.95194" lon="4.72746">
        <ele>568.28</ele>
        <time>2024-05-12T07:43:18Z</time>
      </trkpt>
      <trkpt lat="44.95183" lon="4.7277">
        <ele>568.28</ele>
        <time>2024-05-12T07:43:30Z</time>
      </trkpt>
      <trkpt lat="44.95182" lon="4.72772">
        <ele>568.28</ele>
        <time>2024-05-12T07:43:31Z</time>
      </trkpt>
      <trkpt lat="44.95181" lon="4.72774">
        <ele>567.8</ele>
        <time>2024-05-12T07:43:32Z</time>
      </trkpt>
      <trkpt lat="44.9518" lon="4.72776">
        <ele>567.8</ele>
        <time>2024-05-12T07:43:33Z</time>
      </trkpt>
      <trkpt lat="44.95179" lon="4.72778">
        <ele>567.8</ele>
        <time>2024-05-12T07:43:34Z</time>
      </trkpt>
      <trkpt lat="44.95157" lon="4.72799">
        <ele>566.83</ele>
        <time>2024-05-12T07:43:50Z</time>
      </trkpt>
      <trkpt lat="44.95128" lon="4.72819">
        <ele>566.83</ele>
        <time>2024-05-12T07:44:09Z</time>
      </trkpt>
      <trkpt lat="44.95106" lon="4.7284">
        <ele>565.39</ele>
        <time>2024-05-12T07:44:26Z</time>
      </trkpt>
      <trkpt lat="44.95095" lon="4.72868">
        <ele>561.55</ele>
        <time>2024-05-12T07:44:43Z</time>
      </trkpt>
      <trkpt lat="44.95094" lon="4.72871">
        <ele>561.55</ele>
        <time>2024-05-12T07:44:44Z</time>
      </trkpt>
      <trkpt lat="44.95068" lon="4.72915">
        <ele>558.66</ele>
        <time>2024-05-12T07:45:05Z</time>
      </trkpt>
      <trkpt lat="44.95043" lon="4.72951">
        <ele>563.47</ele>
        <time>2024-05-12T07:45:19Z</time>
      </trkpt>
      <trkpt lat="44.95031" lon="4.72971">
        <ele>567.32</ele>
        <time>2024-05-12T07:45:32Z</time>
      </trkpt>
      <trkpt lat="44.95018" lon="4.72995">
        <ele>565.39</ele>
        <time>2024-05-12T07:45:48Z</time>
      </trkpt>
      <trkpt lat="44.95015" lon="4.73006">
        <ele>563.95</ele>
        <time>2024-05-12T07:45:53Z</time>
      </trkpt>
      <trkpt lat="44.95015" lon="4.73009">
        <ele>563.47</ele>
        <time>2024-05-12T07:45:54Z</time>
      </trkpt>
      <trkpt lat="44.95014" lon="4.73011">
        <ele>563.47</ele>
        <time>2024-05-12T07:45:55Z</time>
      </trkpt>
      <trkpt lat="44.95013" lon="4.73014">
        <ele>563.47</ele>
        <time>2024-05-12T07:45:56Z</time>
      </trkpt>
      <trkpt lat="44.95012" lon="4.73016">
        <ele>562.99</ele>
        <time>2024-05-12T07:45:57Z</time>
      </trkpt>
      <trkpt lat="44.9501" lon="4.73018">
        <ele>562.99</ele>
        <time>2024-05-12T07:45:58Z</time>
      </trkpt>
      <trkpt lat="44.95009" lon="4.73021">
        <ele>562.99</ele>
        <time>2024-05-12T07:45:59Z</time>
      </trkpt>
      <trkpt lat="44.95008" lon="4.73022">
        <ele>562.99</ele>
        <time>2024-05-12T07:46:00Z</time>
      </trkpt>
      <trkpt lat="44.95007" lon="4.73024">
        <ele>562.99</ele>
        <time>2024-05-12T07:46:01Z</time>
      </trkpt>
      <trkpt lat="44.94989" lon="4.73067">
        <ele>560.59</ele>
        <time>2024-05-12T07:46:22Z</time>
      </trkpt>
      <trkpt lat="44.94976" lon="4.73101">
        <ele>559.62</ele>
        <time>2024-05-12T07:46:40Z</time>
      </trkpt>
      <trkpt lat="44.94962" lon="4.73137">
        <ele>558.66</ele>
        <time>2024-05-12T07:47:00Z</time>
      </trkpt>
      <trkpt lat="44.94947" lon="4.73171">
        <ele>558.66</ele>
        <time>2024-05-12T07:47:19Z</time>
      </trkpt>
      <trkpt lat="44.94933" lon="4.73206">
        <ele>558.18</ele>
        <time>2024-05-12T07:47:39Z</time>
      </trkpt>
      <trkpt lat="44.94919" lon="4.73245">
        <ele>556.74</ele>
        <time>2024-05-12T07:48:00Z</time>
      </trkpt>
      <trkpt lat="44.94905" lon="4.73278">
        <ele>556.26</ele>
        <time>2024-05-12T07:48:19Z</time>
      </trkpt>
      <trkpt lat="44.94894" lon="4.73309">
        <ele>555.78</ele>
        <time>2024-05-12T07:48:37Z</time>
      </trkpt>
      <trkpt lat="44.94881" lon="4.73346">
        <ele>554.34</ele>
        <time>2024-05-12T07:48:57Z</time>
      </trkpt>
      <trkpt lat="44.9487" lon="4.73381">
        <ele>554.34</ele>
        <time>2024-05-12T07:49:18Z</time>
      </trkpt>
      <trkpt lat="44.9486" lon="4.73416">
        <ele>553.38</ele>
        <time>2024-05-12T07:49:38Z</time>
      </trkpt>
      <trkpt lat="44.94858" lon="4.73451">
        <ele>550.49</ele>
        <time>2024-05-12T07:49:56Z</time>
      </trkpt>
      <trkpt lat="44.94869" lon="4.73477">
        <ele>550.01</ele>
        <time>2024-05-12T07:50:15Z</time>
      </trkpt>
      <trkpt lat="44.94871" lon="4.73478">
        <ele>550.01</ele>
        <time>2024-05-12T07:50:17Z</time>
      </trkpt>
      <trkpt lat="44.94895" lon="4.73482">
        <ele>552.41</ele>
        <time>2024-05-12T07:50:33Z</time>
      </trkpt>
      <trkpt lat="44.94919" lon="4.73493">
        <ele>551.45</ele>
        <time>2024-05-12T07:50:49Z</time>
      </trkpt>
      <trkpt lat="44.94945" lon="4.73507">
        <ele>550.01</ele>
        <time>2024-05-12T07:51:06Z</time>
      </trkpt>
      <trkpt lat="44.94949" lon="4.73522">
        <ele>548.09</ele>
        <time>2024-05-12T07:51:20Z</time>
      </trkpt>
      <trkpt lat="44.94932" lon="4.73536">
        <ele>546.65</ele>
        <time>2024-05-12T07:51:35Z</time>
      </trkpt>
      <trkpt lat="44.94915" lon="4.7355">
        <ele>545.69</ele>
        <time>2024-05-12T07:51:50Z</time>
      </trkpt>
      <trkpt lat="44.94887" lon="4.7356">
        <ele>540.88</ele>
        <time>2024-05-12T07:52:13Z</time>
      </trkpt>
      <trkpt lat="44.9487" lon="4.73566">
        <ele>539.44</ele>
        <time>2024-05-12T07:52:23Z</time>
      </trkpt>
      <trkpt lat="44.9484" lon="4.73577">
        <ele>537.51</ele>
        <time>2024-05-12T07:52:45Z</time>
      </trkpt>
      <trkpt lat="44.94814" lon="4.73586">
        <ele>536.55</ele>
        <time>2024-05-12T07:53:03Z</time>
      </trkpt>
      <trkpt lat="44.94791" lon="4.73601">
        <ele>535.59</ele>
        <time>2024-05-12T07:53:22Z</time>
      </trkpt>
      <trkpt lat="44.9476" lon="4.73621">
        <ele>536.07</ele>
        <time>2024-05-12T07:53:43Z</time>
      </trkpt>
      <trkpt lat="44.9473" lon="4.73637">
        <ele>535.11</ele>
        <time>2024-05-12T07:54:02Z</time>
      </trkpt>
      <trkpt lat="44.94696" lon="4.73646">
        <ele>532.71</ele>
        <time>2024-05-12T07:54:24Z</time>
      </trkpt>
      <trkpt lat="44.94672" lon="4.7366">
        <ele>535.11</ele>
        <time>2024-05-12T07:54:42Z</time>
      </trkpt>
      <trkpt lat="44.94661" lon="4.73662">
        <ele>536.07</ele>
        <time>2024-05-12T07:54:52Z</time>
      </trkpt>
      <trkpt lat="44.94658" lon="4.73665">
        <ele>535.59</ele>
        <time>2024-05-12T07:55:00Z</time>
      </trkpt>
      <trkpt lat="44.94657" lon="4.73665">
        <ele>535.59</ele>
        <time>2024-05-12T07:55:01Z</time>
      </trkpt>
      <trkpt lat="44.94656" lon="4.73665">
        <ele>535.11</ele>
        <time>2024-05-12T07:55:02Z</time>
      </trkpt>
      <trkpt lat="44.94651" lon="4.73665">
        <ele>535.59</ele>
        <time>2024-05-12T07:55:06Z</time>
      </trkpt>
      <trkpt lat="44.94627" lon="4.7367">
        <ele>537.03</ele>
        <time>2024-05-12T07:55:23Z</time>
      </trkpt>
      <trkpt lat="44.94602" lon="4.73673">
        <ele>534.15</ele>
        <time>2024-05-12T07:55:43Z</time>
      </trkpt>
      <trkpt lat="44.9458" lon="4.73682">
        <ele>535.11</ele>
        <time>2024-05-12T07:55:58Z</time>
      </trkpt>
      <trkpt lat="44.94555" lon="4.73685">
        <ele>534.15</ele>
        <time>2024-05-12T07:56:14Z</time>
      </trkpt>
      <trkpt lat="44.94524" lon="4.73689">
        <ele>531.75</ele>
        <time>2024-05-12T07:56:34Z</time>
      </trkpt>
      <trkpt lat="44.94499" lon="4.73699">
        <ele>530.3</ele>
        <time>2024-05-12T07:56:51Z</time>
      </trkpt>
      <trkpt lat="44.94476" lon="4.73716">
        <ele>527.9</ele>
        <time>2024-05-12T07:57:09Z</time>
      </trkpt>
      <trkpt lat="44.94457" lon="4.73744">
        <ele>528.86</ele>
        <time>2024-05-12T07:57:30Z</time>
      </trkpt>
      <trkpt lat="44.9444" lon="4.73772">
        <ele>529.82</ele>
        <time>2024-05-12T07:57:51Z</time>
      </trkpt>
      <trkpt lat="44.94413" lon="4.73788">
        <ele>529.82</ele>
        <time>2024-05-12T07:58:09Z</time>
      </trkpt>
      <trkpt lat="44.9437" lon="4.73804">
        <ele>528.86</ele>
        <time>2024-05-12T07:58:33Z</time>
      </trkpt>
      <trkpt lat="44.94338" lon="4.73804">
        <ele>523.58</ele>
        <time>2024-05-12T07:58:55Z</time>
      </trkpt>
      <trkpt lat="44.94312" lon="4.73806">
        <ele>520.21</ele>
        <time>2024-05-12T07:59:13Z</time>
      </trkpt>
      <trkpt lat="44.94282" lon="4.73823">
        <ele>517.81</ele>
        <time>2024-05-12T07:59:36Z</time>
      </trkpt>
      <trkpt lat="44.94266" lon="4.7383">
        <ele>517.33</ele>
        <time>2024-05-12T07:59:49Z</time>
      </trkpt>
      <trkpt lat="44.94241" lon="4.73849">
        <ele>516.85</ele>
        <time>2024-05-12T08:00:06Z</time>
      </trkpt>
      <trkpt lat="44.94212" lon="4.73867">
        <ele>518.29</ele>
        <time>2024-05-12T08:00:27Z</time>
      </trkpt>
      <trkpt lat="44.94196" lon="4.73886">
        <ele>519.73</ele>
        <time>2024-05-12T08:00:41Z</time>
      </trkpt>
      <trkpt lat="44.94186" lon="4.73908">
        <ele>520.21</ele>
        <time>2024-05-12T08:00:53Z</time>
      </trkpt>
      <trkpt lat="44.94181" lon="4.73917">
        <ele>519.73</ele>
        <time>2024-05-12T08:00:59Z</time>
      </trkpt>
      <trkpt lat="44.94181" lon="4.73919">
        <ele>519.25</ele>
        <time>2024-05-12T08:01:00Z</time>
      </trkpt>
      <trkpt lat="44.9418" lon="4.73921">
        <ele>519.25</ele>
        <time>2024-05-12T08:01:01Z</time>
      </trkpt>
      <trkpt lat="44.9418" lon="4.73922">
        <ele>519.25</ele>
        <time>2024-05-12T08:01:02Z</time>
      </trkpt>
      <trkpt lat="44.94179" lon="4.73924">
        <ele>519.25</ele>
        <time>2024-05-12T08:01:03Z</time>
      </trkpt>
      <trkpt lat="44.94166" lon="4.73958">
        <ele>517.33</ele>
        <time>2024-05-12T08:01:21Z</time>
      </trkpt>
      <trkpt lat="44.94154" lon="4.73988">
        <ele>516.37</ele>
        <time>2024-05-12T08:01:39Z</time>
      </trkpt>
      <trkpt lat="44.94158" lon="4.74031">
        <ele>517.81</ele>
        <time>2024-05-12T08:02:00Z</time>
      </trkpt>
      <trkpt lat="44.94167" lon="4.74078">
        <ele>516.37</ele>
        <time>2024-05-12T08:02:21Z</time>
      </trkpt>
      <trkpt lat="44.94183" lon="4.74112">
        <ele>516.85</ele>
        <time>2024-05-12T08:02:38Z</time>
      </trkpt>
      <trkpt lat="44.94208" lon="4.74124">
        <ele>519.25</ele>
        <time>2024-05-12T08:02:55Z</time>
      </trkpt>
      <trkpt lat="44.94221" lon="4.74125">
        <ele>519.73</ele>
        <time>2024-05-12T08:03:04Z</time>
      </trkpt>
      <trkpt lat="44.94226" lon="4.74129">
        <ele>519.73</ele>
        <time>2024-05-12T08:03:19Z</time>
      </trkpt>
      <trkpt lat="44.94227" lon="4.7413">
        <ele>519.73</ele>
        <time>2024-05-12T08:03:20Z</time>
      </trkpt>
      <trkpt lat="44.94228" lon="4.7413">
        <ele>519.73</ele>
        <time>2024-05-12T08:03:21Z</time>
      </trkpt>
      <trkpt lat="44.94255" lon="4.7414">
        <ele>521.65</ele>
        <time>2024-05-12T08:03:42Z</time>
      </trkpt>
      <trkpt lat="44.94281" lon="4.7415">
        <ele>523.09</ele>
        <time>2024-05-12T08:04:01Z</time>
      </trkpt>
      <trkpt lat="44.94301" lon="4.74157">
        <ele>526.46</ele>
        <time>2024-05-12T08:04:17Z</time>
      </trkpt>
      <trkpt lat="44.94315" lon="4.7416">
        <ele>527.42</ele>
        <time>2024-05-12T08:04:27Z</time>
      </trkpt>
      <trkpt lat="44.94317" lon="4.7416">
        <ele>527.42</ele>
        <time>2024-05-12T08:04:28Z</time>
      </trkpt>
      <trkpt lat="44.94318" lon="4.74161">
        <ele>527.9</ele>
        <time>2024-05-12T08:04:29Z</time>
      </trkpt>
      <trkpt lat="44.94346" lon="4.74175">
        <ele>532.71</ele>
        <time>2024-05-12T08:04:49Z</time>
      </trkpt>
      <trkpt lat="44.94372" lon="4.74195">
        <ele>535.11</ele>
        <time>2024-05-12T08:05:09Z</time>
      </trkpt>
      <trkpt lat="44.94397" lon="4.74225">
        <ele>537.51</ele>
        <time>2024-05-12T08:05:29Z</time>
      </trkpt>
      <trkpt lat="44.94411" lon="4.74263">
        <ele>539.92</ele>
        <time>2024-05-12T08:05:49Z</time>
      </trkpt>
      <trkpt lat="44.94421" lon="4.74304">
        <ele>543.76</ele>
        <time>2024-05-12T08:06:10Z</time>
      </trkpt>
      <trkpt lat="44.94433" lon="4.74342">
        <ele>545.69</ele>
        <time>2024-05-12T08:06:30Z</time>
      </trkpt>
      <trkpt lat="44.9445" lon="4.74385">
        <ele>546.65</ele>
        <time>2024-05-12T08:06:52Z</time>
      </trkpt>
      <trkpt lat="44.94451" lon="4.74394">
        <ele>547.61</ele>
        <time>2024-05-12T08:07:08Z</time>
      </trkpt>
      <trkpt lat="44.94455" lon="4.74404">
        <ele>547.61</ele>
        <time>2024-05-12T08:07:25Z</time>
      </trkpt>
      <trkpt lat="44.94457" lon="4.74436">
        <ele>547.61</ele>
        <time>2024-05-12T08:07:42Z</time>
      </trkpt>
      <trkpt lat="44.94454" lon="4.74454">
        <ele>547.61</ele>
        <time>2024-05-12T08:07:52Z</time>
      </trkpt>
      <trkpt lat="44.94453" lon="4.74454">
        <ele>547.61</ele>
        <time>2024-05-12T08:07:53Z</time>
      </trkpt>
      <trkpt lat="44.94451" lon="4.74455">
        <ele>547.61</ele>
        <time>2024-05-12T08:07:54Z</time>
      </trkpt>
      <trkpt lat="44.94427" lon="4.74472">
        <ele>548.09</ele>
        <time>2024-05-12T08:08:14Z</time>
      </trkpt>
      <trkpt lat="44.94406" lon="4.74489">
        <ele>549.53</ele>
        <time>2024-05-12T08:08:30Z</time>
      </trkpt>
      <trkpt lat="44.94383" lon="4.74504">
        <ele>551.45</ele>
        <time>2024-05-12T08:08:47Z</time>
      </trkpt>
      <trkpt lat="44.9436" lon="4.74519">
        <ele>551.93</ele>
        <time>2024-05-12T08:09:05Z</time>
      </trkpt>
      <trkpt lat="44.94343" lon="4.74525">
        <ele>553.86</ele>
        <time>2024-05-12T08:09:20Z</time>
      </trkpt>
      <trkpt lat="44.94345" lon="4.74528">
        <ele>553.86</ele>
        <time>2024-05-12T08:09:23Z</time>
      </trkpt>
      <trkpt lat="44.94346" lon="4.74535">
        <ele>553.38</ele>
        <time>2024-05-12T08:09:26Z</time>
      </trkpt>
      <trkpt lat="44.94345" lon="4.74537">
        <ele>553.38</ele>
        <time>2024-05-12T08:09:27Z</time>
      </trkpt>
      <trkpt lat="44.94345" lon="4.74539">
        <ele>553.86</ele>
        <time>2024-05-12T08:09:28Z</time>
      </trkpt>
      <trkpt lat="44.94344" lon="4.74574">
        <ele>555.78</ele>
        <time>2024-05-12T08:09:44Z</time>
      </trkpt>
      <trkpt lat="44.94353" lon="4.74626">
        <ele>559.62</ele>
        <time>2024-05-12T08:10:08Z</time>
      </trkpt>
      <trkpt lat="44.94358" lon="4.74675">
        <ele>562.99</ele>
        <time>2024-05-12T08:10:32Z</time>
      </trkpt>
      <trkpt lat="44.94344" lon="4.74711">
        <ele>564.91</ele>
        <time>2024-05-12T08:10:52Z</time>
      </trkpt>
      <trkpt lat="44.94338" lon="4.74748">
        <ele>565.39</ele>
        <time>2024-05-12T08:11:12Z</time>
      </trkpt>
      <trkpt lat="44.94336" lon="4.74782">
        <ele>567.8</ele>
        <time>2024-05-12T08:11:29Z</time>
      </trkpt>
      <trkpt lat="44.94343" lon="4.74817">
        <ele>570.2</ele>
        <time>2024-05-12T08:11:48Z</time>
      </trkpt>
      <trkpt lat="44.94352" lon="4.74845">
        <ele>571.64</ele>
        <time>2024-05-12T08:12:05Z</time>
      </trkpt>
      <trkpt lat="44.94362" lon="4.74877">
        <ele>572.6</ele>
        <time>2024-05-12T08:12:21Z</time>
      </trkpt>
      <trkpt lat="44.94367" lon="4.74907">
        <ele>574.04</ele>
        <time>2024-05-12T08:12:37Z</time>
      </trkpt>
      <trkpt lat="44.94365" lon="4.74915">
        <ele>574.04</ele>
        <time>2024-05-12T08:12:42Z</time>
      </trkpt>
      <trkpt lat="44.94365" lon="4.74924">
        <ele>573.56</ele>
        <time>2024-05-12T08:12:46Z</time>
      </trkpt>
      <trkpt lat="44.94373" lon="4.74967">
        <ele>574.53</ele>
        <time>2024-05-12T08:13:04Z</time>
      </trkpt>
      <trkpt lat="44.94398" lon="4.75007">
        <ele>576.45</ele>
        <time>2024-05-12T08:13:28Z</time>
      </trkpt>
      <trkpt lat="44.94425" lon="4.75048">
        <ele>577.89</ele>
        <time>2024-05-12T08:13:54Z</time>
      </trkpt>
      <trkpt lat="44.94446" lon="4.75079">
        <ele>574.53</ele>
        <time>2024-05-12T08:14:14Z</time>
      </trkpt>
      <trkpt lat="44.94456" lon="4.75102">
        <ele>572.6</ele>
        <time>2024-05-12T08:14:28Z</time>
      </trkpt>
      <trkpt lat="44.94458" lon="4.75111">
        <ele>571.64</ele>
        <time>2024-05-12T08:14:32Z</time>
      </trkpt>
      <trkpt lat="44.94455" lon="4.7512">
        <ele>570.2</ele>
        <time>2024-05-12T08:14:37Z</time>
      </trkpt>
      <trkpt lat="44.9445" lon="4.75126">
        <ele>567.32</ele>
        <time>2024-05-12T08:14:52Z</time>
      </trkpt>
      <trkpt lat="44.94456" lon="4.75137">
        <ele>567.32</ele>
        <time>2024-05-12T08:15:00Z</time>
      </trkpt>
      <trkpt lat="44.94487" lon="4.75129">
        <ele>567.8</ele>
        <time>2024-05-12T08:15:22Z</time>
      </trkpt>
      <trkpt lat="44.94506" lon="4.75105">
        <ele>568.76</ele>
        <time>2024-05-12T08:15:41Z</time>
      </trkpt>
      <trkpt lat="44.94533" lon="4.75124">
        <ele>562.99</ele>
        <time>2024-05-12T08:16:01Z</time>
      </trkpt>
      <trkpt lat="44.94565" lon="4.75132">
        <ele>560.11</ele>
        <time>2024-05-12T08:16:21Z</time>
      </trkpt>
      <trkpt lat="44.94588" lon="4.75141">
        <ele>558.18</ele>
        <time>2024-05-12T08:16:37Z</time>
      </trkpt>
      <trkpt lat="44.94612" lon="4.75157">
        <ele>555.3</ele>
        <time>2024-05-12T08:16:55Z</time>
      </trkpt>
      <trkpt lat="44.94635" lon="4.75167">
        <ele>552.41</ele>
        <time>2024-05-12T08:17:12Z</time>
      </trkpt>
      <trkpt lat="44.94665" lon="4.75183">
        <ele>550.49</ele>
        <time>2024-05-12T08:17:32Z</time>
      </trkpt>
      <trkpt lat="44.94693" lon="4.7519">
        <ele>549.05</ele>
        <time>2024-05-12T08:17:52Z</time>
      </trkpt>
      <trkpt lat="44.94696" lon="4.75192">
        <ele>549.05</ele>
        <time>2024-05-12T08:17:54Z</time>
      </trkpt>
      <trkpt lat="44.94724" lon="4.7521">
        <ele>549.05</ele>
        <time>2024-05-12T08:18:15Z</time>
      </trkpt>
      <trkpt lat="44.9475" lon="4.75227">
        <ele>550.01</ele>
        <time>2024-05-12T08:18:36Z</time>
      </trkpt>
      <trkpt lat="44.94778" lon="4.75244">
        <ele>550.01</ele>
        <time>2024-05-12T08:18:55Z</time>
      </trkpt>
      <trkpt lat="44.94795" lon="4.75257">
        <ele>547.61</ele>
        <time>2024-05-12T08:19:11Z</time>
      </trkpt>
      <trkpt lat="44.94821" lon="4.75256">
        <ele>547.61</ele>
        <time>2024-05-12T08:19:26Z</time>
      </trkpt>
      <trkpt lat="44.94848" lon="4.75258">
        <ele>543.76</ele>
        <time>2024-05-12T08:19:44Z</time>
      </trkpt>
      <trkpt lat="44.94872" lon="4.7526">
        <ele>538.48</ele>
        <time>2024-05-12T08:20:03Z</time>
      </trkpt>
      <trkpt lat="44.94878" lon="4.75259">
        <ele>537.51</ele>
        <time>2024-05-12T08:20:07Z</time>
      </trkpt>
      <trkpt lat="44.94901" lon="4.75259">
        <ele>535.59</ele>
        <time>2024-05-12T08:20:23Z</time>
      </trkpt>
      <trkpt lat="44.94928" lon="4.75259">
        <ele>531.75</ele>
        <time>2024-05-12T08:20:39Z</time>
      </trkpt>
      <trkpt lat="44.94951" lon="4.75257">
        <ele>527.42</ele>
        <time>2024-05-12T08:20:56Z</time>
      </trkpt>
      <trkpt lat="44.94978" lon="4.75255">
        <ele>526.46</ele>
        <time>2024-05-12T08:21:13Z</time>
      </trkpt>
      <trkpt lat="44.94984" lon="4.7526">
        <ele>527.42</ele>
        <time>2024-05-12T08:21:18Z</time>
      </trkpt>
      <trkpt lat="44.94973" lon="4.75281">
        <ele>522.61</ele>
        <time>2024-05-12T08:21:34Z</time>
      </trkpt>
      <trkpt lat="44.94968" lon="4.75309">
        <ele>517.81</ele>
        <time>2024-05-12T08:21:52Z</time>
      </trkpt>
      <trkpt lat="44.94965" lon="4.75323">
        <ele>516.85</ele>
        <time>2024-05-12T08:21:58Z</time>
      </trkpt>
      <trkpt lat="44.9495" lon="4.7536">
        <ele>518.77</ele>
        <time>2024-05-12T08:22:15Z</time>
      </trkpt>
      <trkpt lat="44.94913" lon="4.75387">
        <ele>522.61</ele>
        <time>2024-05-12T08:22:38Z</time>
      </trkpt>
      <trkpt lat="44.94886" lon="4.75401">
        <ele>520.69</ele>
        <time>2024-05-12T08:22:57Z</time>
      </trkpt>
      <trkpt lat="44.94885" lon="4.75401">
        <ele>515.88</ele>
        <time>2024-05-12T08:23:16Z</time>
      </trkpt>
      <trkpt lat="44.94874" lon="4.75409">
        <ele>522.13</ele>
        <time>2024-05-12T08:23:40Z</time>
      </trkpt>
      <trkpt lat="44.94857" lon="4.75424">
        <ele>520.69</ele>
        <time>2024-05-12T08:23:57Z</time>
      </trkpt>
      <trkpt lat="44.94831" lon="4.75439">
        <ele>516.85</ele>
        <time>2024-05-12T08:24:17Z</time>
      </trkpt>
      <trkpt lat="44.94803" lon="4.75451">
        <ele>515.4</ele>
        <time>2024-05-12T08:24:35Z</time>
      </trkpt>
      <trkpt lat="44.94777" lon="4.75458">
        <ele>514.44</ele>
        <time>2024-05-12T08:24:54Z</time>
      </trkpt>
      <trkpt lat="44.94754" lon="4.75462">
        <ele>509.64</ele>
        <time>2024-05-12T08:25:09Z</time>
      </trkpt>
      <trkpt lat="44.94723" lon="4.75468">
        <ele>502.91</ele>
        <time>2024-05-12T08:25:29Z</time>
      </trkpt>
      <trkpt lat="44.9469" lon="4.7548">
        <ele>501.95</ele>
        <time>2024-05-12T08:25:48Z</time>
      </trkpt>
      <trkpt lat="44.94684" lon="4.75489">
        <ele>504.35</ele>
        <time>2024-05-12T08:26:04Z</time>
      </trkpt>
      <trkpt lat="44.9468" lon="4.75492">
        <ele>505.79</ele>
        <time>2024-05-12T08:26:23Z</time>
      </trkpt>
      <trkpt lat="44.94664" lon="4.75513">
        <ele>511.56</ele>
        <time>2024-05-12T08:26:40Z</time>
      </trkpt>
      <trkpt lat="44.94645" lon="4.75536">
        <ele>511.56</ele>
        <time>2024-05-12T08:26:59Z</time>
      </trkpt>
      <trkpt lat="44.94623" lon="4.75557">
        <ele>510.12</ele>
        <time>2024-05-12T08:27:16Z</time>
      </trkpt>
      <trkpt lat="44.94606" lon="4.75568">
        <ele>507.23</ele>
        <time>2024-05-12T08:27:34Z</time>
      </trkpt>
      <trkpt lat="44.94605" lon="4.75571">
        <ele>509.16</ele>
        <time>2024-05-12T08:27:47Z</time>
      </trkpt>
      <trkpt lat="44.94604" lon="4.75566">
        <ele>508.67</ele>
        <time>2024-05-12T08:28:05Z</time>
      </trkpt>
      <trkpt lat="44.94603" lon="4.75571">
        <ele>509.64</ele>
        <time>2024-05-12T08:28:29Z</time>
      </trkpt>
      <trkpt lat="44.94606" lon="4.75571">
        <ele>512.52</ele>
        <time>2024-05-12T08:28:50Z</time>
      </trkpt>
      <trkpt lat="44.94613" lon="4.75578">
        <ele>513</ele>
        <time>2024-05-12T08:29:01Z</time>
      </trkpt>
      <trkpt lat="44.94627" lon="4.756">
        <ele>517.33</ele>
        <time>2024-05-12T08:29:19Z</time>
      </trkpt>
      <trkpt lat="44.94633" lon="4.75609">
        <ele>519.25</ele>
        <time>2024-05-12T08:29:49Z</time>
      </trkpt>
      <trkpt lat="44.94632" lon="4.75607">
        <ele>517.81</ele>
        <time>2024-05-12T08:30:06Z</time>
      </trkpt>
      <trkpt lat="44.94638" lon="4.75604">
        <ele>518.29</ele>
        <time>2024-05-12T08:30:26Z</time>
      </trkpt>
      <trkpt lat="44.94652" lon="4.75611">
        <ele>515.88</ele>
        <time>2024-05-12T08:30:43Z</time>
      </trkpt>
      <trkpt lat="44.94676" lon="4.75622">
        <ele>512.52</ele>
        <time>2024-05-12T08:30:59Z</time>
      </trkpt>
      <trkpt lat="44.9469" lon="4.75623">
        <ele>510.6</ele>
        <time>2024-05-12T08:31:09Z</time>
      </trkpt>
      <trkpt lat="44.94692" lon="4.75623">
        <ele>510.12</ele>
        <time>2024-05-12T08:31:10Z</time>
      </trkpt>
      <trkpt lat="44.94694" lon="4.75624">
        <ele>511.08</ele>
        <time>2024-05-12T08:31:11Z</time>
      </trkpt>
      <trkpt lat="44.94727" lon="4.7563">
        <ele>520.69</ele>
        <time>2024-05-12T08:31:26Z</time>
      </trkpt>
      <trkpt lat="44.94754" lon="4.75648">
        <ele>523.58</ele>
        <time>2024-05-12T08:31:45Z</time>
      </trkpt>
      <trkpt lat="44.94777" lon="4.75668">
        <ele>525.02</ele>
        <time>2024-05-12T08:32:02Z</time>
      </trkpt>
      <trkpt lat="44.94798" lon="4.75685">
        <ele>527.9</ele>
        <time>2024-05-12T08:32:17Z</time>
      </trkpt>
      <trkpt lat="44.94823" lon="4.75708">
        <ele>531.75</ele>
        <time>2024-05-12T08:32:35Z</time>
      </trkpt>
      <trkpt lat="44.9485" lon="4.75732">
        <ele>534.15</ele>
        <time>2024-05-12T08:32:57Z</time>
      </trkpt>
      <trkpt lat="44.94876" lon="4.75754">
        <ele>538.48</ele>
        <time>2024-05-12T08:33:18Z</time>
      </trkpt>
      <trkpt lat="44.94905" lon="4.75776">
        <ele>544.72</ele>
        <time>2024-05-12T08:33:40Z</time>
      </trkpt>
      <trkpt lat="44.94927" lon="4.75798">
        <ele>549.53</ele>
        <time>2024-05-12T08:33:57Z</time>
      </trkpt>
      <trkpt lat="44.94948" lon="4.75818">
        <ele>550.97</ele>
        <time>2024-05-12T08:34:12Z</time>
      </trkpt>
      <trkpt lat="44.9497" lon="4.7584">
        <ele>551.93</ele>
        <time>2024-05-12T08:34:29Z</time>
      </trkpt>
      <trkpt lat="44.94993" lon="4.75877">
        <ele>554.34</ele>
        <time>2024-05-12T08:34:52Z</time>
      </trkpt>
      <trkpt lat="44.95011" lon="4.75912">
        <ele>554.34</ele>
        <time>2024-05-12T08:35:13Z</time>
      </trkpt>
      <trkpt lat="44.95002" lon="4.75944">
        <ele>553.86</ele>
        <time>2024-05-12T08:35:30Z</time>
      </trkpt>
      <trkpt lat="44.94979" lon="4.75958">
        <ele>550.01</ele>
        <time>2024-05-12T08:35:48Z</time>
      </trkpt>
      <trkpt lat="44.94952" lon="4.75968">
        <ele>547.61</ele>
        <time>2024-05-12T08:36:06Z</time>
      </trkpt>
      <trkpt lat="44.94923" lon="4.75962">
        <ele>549.53</ele>
        <time>2024-05-12T08:36:25Z</time>
      </trkpt>
      <trkpt lat="44.94896" lon="4.75947">
        <ele>549.53</ele>
        <time>2024-05-12T08:36:45Z</time>
      </trkpt>
      <trkpt lat="44.94872" lon="4.7593">
        <ele>548.57</ele>
        <time>2024-05-12T08:37:02Z</time>
      </trkpt>
      <trkpt lat="44.94869" lon="4.7593">
        <ele>548.09</ele>
        <time>2024-05-12T08:37:13Z</time>
      </trkpt>
      <trkpt lat="44.94863" lon="4.75921">
        <ele>545.69</ele>
        <time>2024-05-12T08:37:28Z</time>
      </trkpt>
      <trkpt lat="44.94858" lon="4.75923">
        <ele>544.72</ele>
        <time>2024-05-12T08:37:52Z</time>
      </trkpt>
      <trkpt lat="44.94862" lon="4.75924">
        <ele>549.53</ele>
        <time>2024-05-12T08:38:14Z</time>
      </trkpt>
      <trkpt lat="44.94867" lon="4.7592">
        <ele>551.45</ele>
        <time>2024-05-12T08:38:40Z</time>
      </trkpt>
      <trkpt lat="44.94864" lon="4.75924">
        <ele>552.41</ele>
        <time>2024-05-12T08:38:57Z</time>
      </trkpt>
      <trkpt lat="44.94869" lon="4.75933">
        <ele>555.3</ele>
        <time>2024-05-12T08:39:10Z</time>
      </trkpt>
      <trkpt lat="44.94867" lon="4.75952">
        <ele>557.22</ele>
        <time>2024-05-12T08:39:25Z</time>
      </trkpt>
      <trkpt lat="44.94862" lon="4.7596">
        <ele>557.22</ele>
        <time>2024-05-12T08:39:37Z</time>
      </trkpt>
      <trkpt lat="44.94857" lon="4.75955">
        <ele>556.26</ele>
        <time>2024-05-12T08:40:32Z</time>
      </trkpt>
      <trkpt lat="44.94862" lon="4.75949">
        <ele>551.45</ele>
        <time>2024-05-12T08:41:02Z</time>
      </trkpt>
      <trkpt lat="44.94863" lon="4.75928">
        <ele>550.01</ele>
        <time>2024-05-12T08:41:18Z</time>
      </trkpt>
      <trkpt lat="44.94861" lon="4.75924">
        <ele>550.97</ele>
        <time>2024-05-12T08:41:41Z</time>
      </trkpt>
      <trkpt lat="44.94859" lon="4.75927">
        <ele>553.38</ele>
        <time>2024-05-12T08:42:04Z</time>
      </trkpt>
      <trkpt lat="44.94859" lon="4.75916">
        <ele>554.34</ele>
        <time>2024-05-12T08:42:19Z</time>
      </trkpt>
      <trkpt lat="44.94866" lon="4.75919">
        <ele>552.41</ele>
        <time>2024-05-12T08:42:34Z</time>
      </trkpt>
      <trkpt lat="44.94867" lon="4.75925">
        <ele>553.86</ele>
        <time>2024-05-12T08:42:49Z</time>
      </trkpt>
      <trkpt lat="44.94863" lon="4.75932">
        <ele>552.9</ele>
        <time>2024-05-12T08:43:08Z</time>
      </trkpt>
      <trkpt lat="44.94862" lon="4.75922">
        <ele>556.26</ele>
        <time>2024-05-12T08:43:31Z</time>
      </trkpt>
      <trkpt lat="44.94859" lon="4.75914">
        <ele>556.26</ele>
        <time>2024-05-12T08:43:36Z</time>
      </trkpt>
      <trkpt lat="44.94836" lon="4.7591">
        <ele>552.41</ele>
        <time>2024-05-12T08:43:54Z</time>
      </trkpt>
      <trkpt lat="44.94809" lon="4.75927">
        <ele>549.53</ele>
        <time>2024-05-12T08:44:14Z</time>
      </trkpt>
      <trkpt lat="44.94782" lon="4.75942">
        <ele>547.61</ele>
        <time>2024-05-12T08:44:33Z</time>
      </trkpt>
      <trkpt lat="44.94761" lon="4.75954">
        <ele>545.2</ele>
        <time>2024-05-12T08:44:48Z</time>
      </trkpt>
      <trkpt lat="44.9473" lon="4.75979">
        <ele>546.17</ele>
        <time>2024-05-12T08:45:10Z</time>
      </trkpt>
      <trkpt lat="44.94705" lon="4.75988">
        <ele>549.05</ele>
        <time>2024-05-12T08:45:27Z</time>
      </trkpt>
      <trkpt lat="44.94678" lon="4.75986">
        <ele>549.05</ele>
        <time>2024-05-12T08:45:47Z</time>
      </trkpt>
      <trkpt lat="44.94649" lon="4.75979">
        <ele>546.65</ele>
        <time>2024-05-12T08:46:09Z</time>
      </trkpt>
      <trkpt lat="44.94631" lon="4.75971">
        <ele>547.13</ele>
        <time>2024-05-12T08:46:23Z</time>
      </trkpt>
      <trkpt lat="44.9463" lon="4.75971">
        <ele>547.13</ele>
        <time>2024-05-12T08:46:24Z</time>
      </trkpt>
      <trkpt lat="44.94628" lon="4.75971">
        <ele>547.61</ele>
        <time>2024-05-12T08:46:25Z</time>
      </trkpt>
      <trkpt lat="44.94627" lon="4.75971">
        <ele>547.61</ele>
        <time>2024-05-12T08:46:26Z</time>
      </trkpt>
      <trkpt lat="44.94625" lon="4.75971">
        <ele>547.61</ele>
        <time>2024-05-12T08:46:27Z</time>
      </trkpt>
      <trkpt lat="44.94596" lon="4.75967">
        <ele>549.05</ele>
        <time>2024-05-12T08:46:46Z</time>
      </trkpt>
      <trkpt lat="44.9457" lon="4.75962">
        <ele>553.38</ele>
        <time>2024-05-12T08:47:04Z</time>
      </trkpt>
      <trkpt lat="44.94543" lon="4.7596">
        <ele>556.26</ele>
        <time>2024-05-12T08:47:24Z</time>
      </trkpt>
      <trkpt lat="44.94515" lon="4.7596">
        <ele>555.78</ele>
        <time>2024-05-12T08:47:44Z</time>
      </trkpt>
      <trkpt lat="44.9449" lon="4.75965">
        <ele>556.26</ele>
        <time>2024-05-12T08:48:01Z</time>
      </trkpt>
      <trkpt lat="44.94463" lon="4.75955">
        <ele>556.26</ele>
        <time>2024-05-12T08:48:21Z</time>
      </trkpt>
      <trkpt lat="44.94434" lon="4.75936">
        <ele>558.18</ele>
        <time>2024-05-12T08:48:42Z</time>
      </trkpt>
      <trkpt lat="44.94405" lon="4.75919">
        <ele>560.59</ele>
        <time>2024-05-12T08:49:03Z</time>
      </trkpt>
      <trkpt lat="44.94369" lon="4.75909">
        <ele>561.07</ele>
        <time>2024-05-12T08:49:25Z</time>
      </trkpt>
      <trkpt lat="44.94337" lon="4.75909">
        <ele>560.11</ele>
        <time>2024-05-12T08:49:47Z</time>
      </trkpt>
      <trkpt lat="44.94306" lon="4.75922">
        <ele>561.55</ele>
        <time>2024-05-12T08:50:08Z</time>
      </trkpt>
      <trkpt lat="44.94284" lon="4.75947">
        <ele>562.99</ele>
        <time>2024-05-12T08:50:28Z</time>
      </trkpt>
      <trkpt lat="44.9427" lon="4.75981">
        <ele>565.39</ele>
        <time>2024-05-12T08:50:47Z</time>
      </trkpt>
      <trkpt lat="44.94258" lon="4.76019">
        <ele>568.28</ele>
        <time>2024-05-12T08:51:09Z</time>
      </trkpt>
      <trkpt lat="44.94234" lon="4.76036">
        <ele>569.72</ele>
        <time>2024-05-12T08:51:26Z</time>
      </trkpt>
      <trkpt lat="44.94206" lon="4.76035">
        <ele>569.72</ele>
        <time>2024-05-12T08:51:45Z</time>
      </trkpt>
      <trkpt lat="44.9418" lon="4.76014">
        <ele>568.28</ele>
        <time>2024-05-12T08:52:04Z</time>
      </trkpt>
      <trkpt lat="44.94155" lon="4.75991">
        <ele>569.24</ele>
        <time>2024-05-12T08:52:24Z</time>
      </trkpt>
      <trkpt lat="44.94127" lon="4.75966">
        <ele>570.68</ele>
        <time>2024-05-12T08:52:46Z</time>
      </trkpt>
      <trkpt lat="44.94094" lon="4.75942">
        <ele>572.6</ele>
        <time>2024-05-12T08:53:13Z</time>
      </trkpt>
      <trkpt lat="44.94061" lon="4.75926">
        <ele>574.53</ele>
        <time>2024-05-12T08:53:39Z</time>
      </trkpt>
      <trkpt lat="44.94029" lon="4.7591">
        <ele>575.49</ele>
        <time>2024-05-12T08:53:57Z</time>
      </trkpt>
      <trkpt lat="44.93957" lon="4.75867">
        <ele>579.81</ele>
        <time>2024-05-12T08:54:14Z</time>
      </trkpt>
      <trkpt lat="44.9392" lon="4.75853">
        <ele>583.66</ele>
        <time>2024-05-12T08:54:29Z</time>
      </trkpt>
      <trkpt lat="44.93893" lon="4.75842">
        <ele>584.62</ele>
        <time>2024-05-12T08:54:47Z</time>
      </trkpt>
      <trkpt lat="44.93867" lon="4.75829">
        <ele>587.02</ele>
        <time>2024-05-12T08:55:04Z</time>
      </trkpt>
      <trkpt lat="44.93852" lon="4.75814">
        <ele>587.02</ele>
        <time>2024-05-12T08:55:17Z</time>
      </trkpt>
      <trkpt lat="44.93853" lon="4.75812">
        <ele>587.02</ele>
        <time>2024-05-12T08:55:18Z</time>
      </trkpt>
      <trkpt lat="44.93848" lon="4.75782">
        <ele>587.5</ele>
        <time>2024-05-12T08:55:32Z</time>
      </trkpt>
      <trkpt lat="44.93846" lon="4.75777">
        <ele>587.98</ele>
        <time>2024-05-12T08:55:35Z</time>
      </trkpt>
      <trkpt lat="44.9384" lon="4.75736">
        <ele>590.87</ele>
        <time>2024-05-12T08:55:55Z</time>
      </trkpt>
      <trkpt lat="44.93841" lon="4.75699">
        <ele>592.31</ele>
        <time>2024-05-12T08:56:12Z</time>
      </trkpt>
      <trkpt lat="44.93836" lon="4.75668">
        <ele>593.75</ele>
        <time>2024-05-12T08:56:26Z</time>
      </trkpt>
      <trkpt lat="44.93831" lon="4.75632">
        <ele>597.6</ele>
        <time>2024-05-12T08:56:43Z</time>
      </trkpt>
      <trkpt lat="44.93822" lon="4.75593">
        <ele>601.92</ele>
        <time>2024-05-12T08:57:01Z</time>
      </trkpt>
      <trkpt lat="44.93815" lon="4.75561">
        <ele>605.77</ele>
        <time>2024-05-12T08:57:16Z</time>
      </trkpt>
      <trkpt lat="44.93808" lon="4.75529">
        <ele>608.17</ele>
        <time>2024-05-12T08:57:31Z</time>
      </trkpt>
      <trkpt lat="44.93805" lon="4.75501">
        <ele>610.09</ele>
        <time>2024-05-12T08:57:45Z</time>
      </trkpt>
      <trkpt lat="44.93814" lon="4.75474">
        <ele>610.09</ele>
        <time>2024-05-12T08:58:01Z</time>
      </trkpt>
      <trkpt lat="44.93834" lon="4.75466">
        <ele>612.02</ele>
        <time>2024-05-12T08:58:15Z</time>
      </trkpt>
      <trkpt lat="44.93861" lon="4.7545">
        <ele>614.42</ele>
        <time>2024-05-12T08:58:34Z</time>
      </trkpt>
      <trkpt lat="44.93886" lon="4.7543">
        <ele>615.86</ele>
        <time>2024-05-12T08:58:51Z</time>
      </trkpt>
      <trkpt lat="44.93909" lon="4.75419">
        <ele>619.71</ele>
        <time>2024-05-12T08:59:07Z</time>
      </trkpt>
      <trkpt lat="44.93929" lon="4.75407">
        <ele>623.55</ele>
        <time>2024-05-12T08:59:22Z</time>
      </trkpt>
      <trkpt lat="44.93949" lon="4.75379">
        <ele>624.99</ele>
        <time>2024-05-12T08:59:41Z</time>
      </trkpt>
      <trkpt lat="44.93954" lon="4.75338">
        <ele>624.51</ele>
        <time>2024-05-12T09:00:02Z</time>
      </trkpt>
      <trkpt lat="44.9394" lon="4.75304">
        <ele>622.11</ele>
        <time>2024-05-12T09:00:19Z</time>
      </trkpt>
      <trkpt lat="44.93926" lon="4.75268">
        <ele>620.67</ele>
        <time>2024-05-12T09:00:37Z</time>
      </trkpt>
      <trkpt lat="44.93912" lon="4.75233">
        <ele>621.63</ele>
        <time>2024-05-12T09:00:56Z</time>
      </trkpt>
      <trkpt lat="44.93898" lon="4.75186">
        <ele>619.23</ele>
        <time>2024-05-12T09:01:18Z</time>
      </trkpt>
      <trkpt lat="44.93892" lon="4.75147">
        <ele>615.86</ele>
        <time>2024-05-12T09:01:35Z</time>
      </trkpt>
      <trkpt lat="44.93892" lon="4.75123">
        <ele>614.42</ele>
        <time>2024-05-12T09:01:47Z</time>
      </trkpt>
      <trkpt lat="44.93889" lon="4.75117">
        <ele>614.9</ele>
        <time>2024-05-12T09:01:55Z</time>
      </trkpt>
      <trkpt lat="44.93888" lon="4.75117">
        <ele>614.9</ele>
        <time>2024-05-12T09:01:56Z</time>
      </trkpt>
      <trkpt lat="44.93887" lon="4.75117">
        <ele>614.9</ele>
        <time>2024-05-12T09:01:57Z</time>
      </trkpt>
      <trkpt lat="44.93886" lon="4.75118">
        <ele>614.9</ele>
        <time>2024-05-12T09:01:58Z</time>
      </trkpt>
      <trkpt lat="44.93884" lon="4.75118">
        <ele>614.9</ele>
        <time>2024-05-12T09:01:59Z</time>
      </trkpt>
      <trkpt lat="44.93883" lon="4.7512">
        <ele>614.9</ele>
        <time>2024-05-12T09:02:00Z</time>
      </trkpt>
      <trkpt lat="44.93881" lon="4.75121">
        <ele>614.9</ele>
        <time>2024-05-12T09:02:01Z</time>
      </trkpt>
      <trkpt lat="44.93859" lon="4.75141">
        <ele>618.75</ele>
        <time>2024-05-12T09:02:19Z</time>
      </trkpt>
      <trkpt lat="44.93832" lon="4.75161">
        <ele>623.55</ele>
        <time>2024-05-12T09:02:38Z</time>
      </trkpt>
      <trkpt lat="44.93803" lon="4.75185">
        <ele>631.24</ele>
        <time>2024-05-12T09:03:00Z</time>
      </trkpt>
      <trkpt lat="44.93775" lon="4.75218">
        <ele>638.93</ele>
        <time>2024-05-12T09:03:26Z</time>
      </trkpt>
      <trkpt lat="44.93752" lon="4.75242">
        <ele>641.82</ele>
        <time>2024-05-12T09:03:47Z</time>
      </trkpt>
      <trkpt lat="44.93726" lon="4.75243">
        <ele>642.78</ele>
        <time>2024-05-12T09:04:05Z</time>
      </trkpt>
      <trkpt lat="44.93696" lon="4.75222">
        <ele>643.26</ele>
        <time>2024-05-12T09:04:25Z</time>
      </trkpt>
      <trkpt lat="44.93667" lon="4.75197">
        <ele>644.7</ele>
        <time>2024-05-12T09:04:46Z</time>
      </trkpt>
      <trkpt lat="44.93644" lon="4.75185">
        <ele>646.14</ele>
        <time>2024-05-12T09:05:03Z</time>
      </trkpt>
      <trkpt lat="44.93624" lon="4.75156">
        <ele>649.03</ele>
        <time>2024-05-12T09:05:21Z</time>
      </trkpt>
      <trkpt lat="44.93605" lon="4.75127">
        <ele>652.39</ele>
        <time>2024-05-12T09:05:39Z</time>
      </trkpt>
      <trkpt lat="44.93586" lon="4.75092">
        <ele>653.83</ele>
        <time>2024-05-12T09:05:58Z</time>
      </trkpt>
      <trkpt lat="44.93563" lon="4.75062">
        <ele>654.8</ele>
        <time>2024-05-12T09:06:18Z</time>
      </trkpt>
      <trkpt lat="44.93538" lon="4.75034">
        <ele>655.28</ele>
        <time>2024-05-12T09:06:38Z</time>
      </trkpt>
      <trkpt lat="44.93512" lon="4.75008">
        <ele>655.76</ele>
        <time>2024-05-12T09:06:58Z</time>
      </trkpt>
      <trkpt lat="44.93484" lon="4.74977">
        <ele>656.24</ele>
        <time>2024-05-12T09:07:18Z</time>
      </trkpt>
      <trkpt lat="44.93452" lon="4.74946">
        <ele>654.31</ele>
        <time>2024-05-12T09:07:40Z</time>
      </trkpt>
      <trkpt lat="44.93427" lon="4.74924">
        <ele>653.83</ele>
        <time>2024-05-12T09:07:56Z</time>
      </trkpt>
      <trkpt lat="44.93404" lon="4.74898">
        <ele>653.35</ele>
        <time>2024-05-12T09:08:12Z</time>
      </trkpt>
      <trkpt lat="44.9338" lon="4.74869">
        <ele>652.39</ele>
        <time>2024-05-12T09:08:30Z</time>
      </trkpt>
      <trkpt lat="44.9335" lon="4.74841">
        <ele>652.39</ele>
        <time>2024-05-12T09:08:51Z</time>
      </trkpt>
      <trkpt lat="44.93319" lon="4.74811">
        <ele>652.39</ele>
        <time>2024-05-12T09:09:12Z</time>
      </trkpt>
      <trkpt lat="44.93296" lon="4.74789">
        <ele>652.87</ele>
        <time>2024-05-12T09:09:28Z</time>
      </trkpt>
      <trkpt lat="44.93272" lon="4.74764">
        <ele>654.8</ele>
        <time>2024-05-12T09:09:46Z</time>
      </trkpt>
      <trkpt lat="44.93255" lon="4.74737">
        <ele>657.2</ele>
        <time>2024-05-12T09:10:05Z</time>
      </trkpt>
      <trkpt lat="44.93256" lon="4.74735">
        <ele>657.2</ele>
        <time>2024-05-12T09:10:06Z</time>
      </trkpt>
      <trkpt lat="44.93257" lon="4.74733">
        <ele>657.68</ele>
        <time>2024-05-12T09:10:07Z</time>
      </trkpt>
      <trkpt lat="44.93257" lon="4.74731">
        <ele>657.68</ele>
        <time>2024-05-12T09:10:08Z</time>
      </trkpt>
      <trkpt lat="44.93258" lon="4.7473">
        <ele>657.68</ele>
        <time>2024-05-12T09:10:09Z</time>
      </trkpt>
      <trkpt lat="44.93259" lon="4.74728">
        <ele>657.68</ele>
        <time>2024-05-12T09:10:10Z</time>
      </trkpt>
      <trkpt lat="44.93263" lon="4.74716">
        <ele>657.68</ele>
        <time>2024-05-12T09:10:18Z</time>
      </trkpt>
      <trkpt lat="44.93263" lon="4.74713">
        <ele>657.68</ele>
        <time>2024-05-12T09:10:19Z</time>
      </trkpt>
      <trkpt lat="44.93262" lon="4.74711">
        <ele>657.2</ele>
        <time>2024-05-12T09:10:20Z</time>
      </trkpt>
      <trkpt lat="44.93247" lon="4.74673">
        <ele>655.76</ele>
        <time>2024-05-12T09:10:40Z</time>
      </trkpt>
      <trkpt lat="44.93238" lon="4.74632">
        <ele>657.68</ele>
        <time>2024-05-12T09:11:00Z</time>
      </trkpt>
      <trkpt lat="44.93229" lon="4.74592">
        <ele>658.64</ele>
        <time>2024-05-12T09:11:19Z</time>
      </trkpt>
      <trkpt lat="44.93219" lon="4.74557">
        <ele>657.68</ele>
        <time>2024-05-12T09:11:37Z</time>
      </trkpt>
      <trkpt lat="44.93209" lon="4.7453">
        <ele>655.76</ele>
        <time>2024-05-12T09:11:50Z</time>
      </trkpt>
      <trkpt lat="44.9319" lon="4.74497">
        <ele>653.35</ele>
        <time>2024-05-12T09:12:09Z</time>
      </trkpt>
      <trkpt lat="44.93166" lon="4.74473">
        <ele>651.43</ele>
        <time>2024-05-12T09:12:28Z</time>
      </trkpt>
      <trkpt lat="44.93146" lon="4.74456">
        <ele>650.47</ele>
        <time>2024-05-12T09:12:42Z</time>
      </trkpt>
      <trkpt lat="44.93121" lon="4.74435">
        <ele>647.59</ele>
        <time>2024-05-12T09:13:01Z</time>
      </trkpt>
      <trkpt lat="44.93092" lon="4.74414">
        <ele>645.18</ele>
        <time>2024-05-12T09:13:22Z</time>
      </trkpt>
      <trkpt lat="44.93069" lon="4.74396">
        <ele>643.74</ele>
        <time>2024-05-12T09:13:39Z</time>
      </trkpt>
      <trkpt lat="44.9305" lon="4.74382">
        <ele>642.3</ele>
        <time>2024-05-12T09:13:54Z</time>
      </trkpt>
      <trkpt lat="44.9302" lon="4.74365">
        <ele>637.01</ele>
        <time>2024-05-12T09:14:14Z</time>
      </trkpt>
      <trkpt lat="44.93004" lon="4.74374">
        <ele>636.05</ele>
        <time>2024-05-12T09:14:28Z</time>
      </trkpt>
      <trkpt lat="44.92994" lon="4.74405">
        <ele>633.17</ele>
        <time>2024-05-12T09:14:45Z</time>
      </trkpt>
      <trkpt lat="44.92985" lon="4.74432">
        <ele>629.8</ele>
        <time>2024-05-12T09:15:02Z</time>
      </trkpt>
      <trkpt lat="44.92985" lon="4.74434">
        <ele>631.24</ele>
        <time>2024-05-12T09:15:34Z</time>
      </trkpt>
      <trkpt lat="44.92978" lon="4.7444">
        <ele>630.76</ele>
        <time>2024-05-12T09:15:52Z</time>
      </trkpt>
      <trkpt lat="44.92977" lon="4.74441">
        <ele>630.76</ele>
        <time>2024-05-12T09:15:53Z</time>
      </trkpt>
      <trkpt lat="44.92955" lon="4.74459">
        <ele>627.4</ele>
        <time>2024-05-12T09:16:10Z</time>
      </trkpt>
      <trkpt lat="44.92931" lon="4.74468">
        <ele>623.07</ele>
        <time>2024-05-12T09:16:28Z</time>
      </trkpt>
      <trkpt lat="44.92908" lon="4.74459">
        <ele>619.23</ele>
        <time>2024-05-12T09:16:44Z</time>
      </trkpt>
      <trkpt lat="44.92887" lon="4.74451">
        <ele>615.86</ele>
        <time>2024-05-12T09:16:59Z</time>
      </trkpt>
      <trkpt lat="44.92868" lon="4.74431">
        <ele>613.94</ele>
        <time>2024-05-12T09:17:15Z</time>
      </trkpt>
      <trkpt lat="44.92862" lon="4.74414">
        <ele>613.46</ele>
        <time>2024-05-12T09:17:28Z</time>
      </trkpt>
      <trkpt lat="44.92861" lon="4.74412">
        <ele>613.94</ele>
        <time>2024-05-12T09:17:35Z</time>
      </trkpt>
      <trkpt lat="44.92841" lon="4.7439">
        <ele>612.02</ele>
        <time>2024-05-12T09:17:53Z</time>
      </trkpt>
      <trkpt lat="44.92841" lon="4.74363">
        <ele>611.06</ele>
        <time>2024-05-12T09:18:09Z</time>
      </trkpt>
      <trkpt lat="44.9286" lon="4.74328">
        <ele>612.98</ele>
        <time>2024-05-12T09:18:30Z</time>
      </trkpt>
      <trkpt lat="44.92883" lon="4.74298">
        <ele>610.09</ele>
        <time>2024-05-12T09:18:50Z</time>
      </trkpt>
      <trkpt lat="44.92902" lon="4.74281">
        <ele>607.21</ele>
        <time>2024-05-12T09:19:07Z</time>
      </trkpt>
      <trkpt lat="44.9292" lon="4.74262">
        <ele>603.36</ele>
        <time>2024-05-12T09:19:22Z</time>
      </trkpt>
      <trkpt lat="44.92932" lon="4.74229">
        <ele>600</ele>
        <time>2024-05-12T09:19:39Z</time>
      </trkpt>
      <trkpt lat="44.92937" lon="4.7419">
        <ele>597.12</ele>
        <time>2024-05-12T09:19:57Z</time>
      </trkpt>
      <trkpt lat="44.92943" lon="4.74163">
        <ele>592.79</ele>
        <time>2024-05-12T09:20:14Z</time>
      </trkpt>
      <trkpt lat="44.92957" lon="4.74133">
        <ele>589.91</ele>
        <time>2024-05-12T09:20:29Z</time>
      </trkpt>
      <trkpt lat="44.92964" lon="4.7412">
        <ele>588.95</ele>
        <time>2024-05-12T09:20:36Z</time>
      </trkpt>
      <trkpt lat="44.92958" lon="4.74119">
        <ele>587.5</ele>
        <time>2024-05-12T09:20:43Z</time>
      </trkpt>
      <trkpt lat="44.92957" lon="4.74121">
        <ele>587.5</ele>
        <time>2024-05-12T09:20:44Z</time>
      </trkpt>
      <trkpt lat="44.92937" lon="4.74157">
        <ele>587.02</ele>
        <time>2024-05-12T09:21:03Z</time>
      </trkpt>
      <trkpt lat="44.92918" lon="4.74171">
        <ele>587.98</ele>
        <time>2024-05-12T09:21:17Z</time>
      </trkpt>
      <trkpt lat="44.92891" lon="4.74161">
        <ele>590.87</ele>
        <time>2024-05-12T09:21:35Z</time>
      </trkpt>
      <trkpt lat="44.92863" lon="4.74137">
        <ele>591.83</ele>
        <time>2024-05-12T09:21:56Z</time>
      </trkpt>
      <trkpt lat="44.92831" lon="4.74121">
        <ele>593.75</ele>
        <time>2024-05-12T09:22:18Z</time>
      </trkpt>
      <trkpt lat="44.92799" lon="4.74104">
        <ele>594.71</ele>
        <time>2024-05-12T09:22:40Z</time>
      </trkpt>
      <trkpt lat="44.92768" lon="4.74081">
        <ele>597.6</ele>
        <time>2024-05-12T09:23:04Z</time>
      </trkpt>
      <trkpt lat="44.92736" lon="4.74065">
        <ele>600</ele>
        <time>2024-05-12T09:23:27Z</time>
      </trkpt>
      <trkpt lat="44.92713" lon="4.74059">
        <ele>599.52</ele>
        <time>2024-05-12T09:23:44Z</time>
      </trkpt>
      <trkpt lat="44.92681" lon="4.74057">
        <ele>600.96</ele>
        <time>2024-05-12T09:24:06Z</time>
      </trkpt>
      <trkpt lat="44.92652" lon="4.7406">
        <ele>604.81</ele>
        <time>2024-05-12T09:24:26Z</time>
      </trkpt>
      <trkpt lat="44.92642" lon="4.74055">
        <ele>605.29</ele>
        <time>2024-05-12T09:24:33Z</time>
      </trkpt>
      <trkpt lat="44.92641" lon="4.74053">
        <ele>605.29</ele>
        <time>2024-05-12T09:24:34Z</time>
      </trkpt>
      <trkpt lat="44.92641" lon="4.74026">
        <ele>603.85</ele>
        <time>2024-05-12T09:24:50Z</time>
      </trkpt>
      <trkpt lat="44.92641" lon="4.74025">
        <ele>603.85</ele>
        <time>2024-05-12T09:24:51Z</time>
      </trkpt>
      <trkpt lat="44.9264" lon="4.7402">
        <ele>603.36</ele>
        <time>2024-05-12T09:24:54Z</time>
      </trkpt>
      <trkpt lat="44.9264" lon="4.74018">
        <ele>603.36</ele>
        <time>2024-05-12T09:24:55Z</time>
      </trkpt>
      <trkpt lat="44.9264" lon="4.74016">
        <ele>602.88</ele>
        <time>2024-05-12T09:24:56Z</time>
      </trkpt>
      <trkpt lat="44.9264" lon="4.74014">
        <ele>602.88</ele>
        <time>2024-05-12T09:24:57Z</time>
      </trkpt>
      <trkpt lat="44.92639" lon="4.74013">
        <ele>602.4</ele>
        <time>2024-05-12T09:24:58Z</time>
      </trkpt>
      <trkpt lat="44.92639" lon="4.74011">
        <ele>602.4</ele>
        <time>2024-05-12T09:24:59Z</time>
      </trkpt>
      <trkpt lat="44.92641" lon="4.73981">
        <ele>596.64</ele>
        <time>2024-05-12T09:25:18Z</time>
      </trkpt>
      <trkpt lat="44.9264" lon="4.73934">
        <ele>589.43</ele>
        <time>2024-05-12T09:25:41Z</time>
      </trkpt>
      <trkpt lat="44.92655" lon="4.73894">
        <ele>585.1</ele>
        <time>2024-05-12T09:26:05Z</time>
      </trkpt>
      <trkpt lat="44.92674" lon="4.73847">
        <ele>584.62</ele>
        <time>2024-05-12T09:26:31Z</time>
      </trkpt>
      <trkpt lat="44.92676" lon="4.73829">
        <ele>593.27</ele>
        <time>2024-05-12T09:26:51Z</time>
      </trkpt>
      <trkpt lat="44.92679" lon="4.73809">
        <ele>592.31</ele>
        <time>2024-05-12T09:27:04Z</time>
      </trkpt>
      <trkpt lat="44.92682" lon="4.73764">
        <ele>589.43</ele>
        <time>2024-05-12T09:27:24Z</time>
      </trkpt>
      <trkpt lat="44.92685" lon="4.7372">
        <ele>581.25</ele>
        <time>2024-05-12T09:27:45Z</time>
      </trkpt>
      <trkpt lat="44.92698" lon="4.73678">
        <ele>585.58</ele>
        <time>2024-05-12T09:28:06Z</time>
      </trkpt>
      <trkpt lat="44.92707" lon="4.73653">
        <ele>587.02</ele>
        <time>2024-05-12T09:28:19Z</time>
      </trkpt>
      <trkpt lat="44.92718" lon="4.73609">
        <ele>585.58</ele>
        <time>2024-05-12T09:28:39Z</time>
      </trkpt>
      <trkpt lat="44.92736" lon="4.73575">
        <ele>584.62</ele>
        <time>2024-05-12T09:28:59Z</time>
      </trkpt>
      <trkpt lat="44.92741" lon="4.73571">
        <ele>585.58</ele>
        <time>2024-05-12T09:29:02Z</time>
      </trkpt>
      <trkpt lat="44.9277" lon="4.7354">
        <ele>583.66</ele>
        <time>2024-05-12T09:29:25Z</time>
      </trkpt>
      <trkpt lat="44.92788" lon="4.73509">
        <ele>583.66</ele>
        <time>2024-05-12T09:29:44Z</time>
      </trkpt>
      <trkpt lat="44.92786" lon="4.73473">
        <ele>582.22</ele>
        <time>2024-05-12T09:30:03Z</time>
      </trkpt>
      <trkpt lat="44.92784" lon="4.73464">
        <ele>581.73</ele>
        <time>2024-05-12T09:30:07Z</time>
      </trkpt>
      <trkpt lat="44.92786" lon="4.7342">
        <ele>576.45</ele>
        <time>2024-05-12T09:30:27Z</time>
      </trkpt>
      <trkpt lat="44.92789" lon="4.73401">
        <ele>576.45</ele>
        <time>2024-05-12T09:30:35Z</time>
      </trkpt>
      <trkpt lat="44.92787" lon="4.73361">
        <ele>577.41</ele>
        <time>2024-05-12T09:30:55Z</time>
      </trkpt>
      <trkpt lat="44.92787" lon="4.73359">
        <ele>577.89</ele>
        <time>2024-05-12T09:30:56Z</time>
      </trkpt>
      <trkpt lat="44.92774" lon="4.73328">
        <ele>577.41</ele>
        <time>2024-05-12T09:31:14Z</time>
      </trkpt>
      <trkpt lat="44.92753" lon="4.73301">
        <ele>574.53</ele>
        <time>2024-05-12T09:31:33Z</time>
      </trkpt>
      <trkpt lat="44.9275" lon="4.73278">
        <ele>569.24</ele>
        <time>2024-05-12T09:31:48Z</time>
      </trkpt>
      <trkpt lat="44.92772" lon="4.73255">
        <ele>572.12</ele>
        <time>2024-05-12T09:32:04Z</time>
      </trkpt>
      <trkpt lat="44.92807" lon="4.73246">
        <ele>575.97</ele>
        <time>2024-05-12T09:32:27Z</time>
      </trkpt>
      <trkpt lat="44.9283" lon="4.7324">
        <ele>573.08</ele>
        <time>2024-05-12T09:32:47Z</time>
      </trkpt>
      <trkpt lat="44.92837" lon="4.73236">
        <ele>573.56</ele>
        <time>2024-05-12T09:32:52Z</time>
      </trkpt>
      <trkpt lat="44.9286" lon="4.73223">
        <ele>576.93</ele>
        <time>2024-05-12T09:33:09Z</time>
      </trkpt>
      <trkpt lat="44.92874" lon="4.73214">
        <ele>575.01</ele>
        <time>2024-05-12T09:33:27Z</time>
      </trkpt>
      <trkpt lat="44.92901" lon="4.73211">
        <ele>580.29</ele>
        <time>2024-05-12T09:33:44Z</time>
      </trkpt>
      <trkpt lat="44.92926" lon="4.73213">
        <ele>580.29</ele>
        <time>2024-05-12T09:34:01Z</time>
      </trkpt>
      <trkpt lat="44.92948" lon="4.73215">
        <ele>580.29</ele>
        <time>2024-05-12T09:34:17Z</time>
      </trkpt>
      <trkpt lat="44.92974" lon="4.73222">
        <ele>579.33</ele>
        <time>2024-05-12T09:34:35Z</time>
      </trkpt>
      <trkpt lat="44.92987" lon="4.73222">
        <ele>577.41</ele>
        <time>2024-05-12T09:34:45Z</time>
      </trkpt>
      <trkpt lat="44.93014" lon="4.73221">
        <ele>577.89</ele>
        <time>2024-05-12T09:35:02Z</time>
      </trkpt>
      <trkpt lat="44.93041" lon="4.73228">
        <ele>575.49</ele>
        <time>2024-05-12T09:35:19Z</time>
      </trkpt>
      <trkpt lat="44.93066" lon="4.73237">
        <ele>570.2</ele>
        <time>2024-05-12T09:35:41Z</time>
      </trkpt>
      <trkpt lat="44.931" lon="4.73235">
        <ele>570.2</ele>
        <time>2024-05-12T09:36:01Z</time>
      </trkpt>
      <trkpt lat="44.93117" lon="4.73228">
        <ele>572.6</ele>
        <time>2024-05-12T09:36:12Z</time>
      </trkpt>
      <trkpt lat="44.93147" lon="4.73235">
        <ele>572.12</ele>
        <time>2024-05-12T09:36:31Z</time>
      </trkpt>
      <trkpt lat="44.93171" lon="4.73238">
        <ele>570.68</ele>
        <time>2024-05-12T09:36:48Z</time>
      </trkpt>
      <trkpt lat="44.93203" lon="4.73239">
        <ele>569.72</ele>
        <time>2024-05-12T09:37:07Z</time>
      </trkpt>
      <trkpt lat="44.9323" lon="4.73233">
        <ele>568.76</ele>
        <time>2024-05-12T09:37:25Z</time>
      </trkpt>
      <trkpt lat="44.93256" lon="4.73233">
        <ele>565.39</ele>
        <time>2024-05-12T09:37:42Z</time>
      </trkpt>
      <trkpt lat="44.9328" lon="4.73238">
        <ele>563.95</ele>
        <time>2024-05-12T09:37:59Z</time>
      </trkpt>
      <trkpt lat="44.93306" lon="4.73235">
        <ele>561.55</ele>
        <time>2024-05-12T09:38:17Z</time>
      </trkpt>
      <trkpt lat="44.93334" lon="4.73237">
        <ele>566.35</ele>
        <time>2024-05-12T09:38:34Z</time>
      </trkpt>
      <trkpt lat="44.93359" lon="4.73241">
        <ele>569.72</ele>
        <time>2024-05-12T09:38:50Z</time>
      </trkpt>
      <trkpt lat="44.93382" lon="4.73229">
        <ele>572.12</ele>
        <time>2024-05-12T09:39:06Z</time>
      </trkpt>
      <trkpt lat="44.93402" lon="4.73214">
        <ele>570.2</ele>
        <time>2024-05-12T09:39:23Z</time>
      </trkpt>
      <trkpt lat="44.93419" lon="4.73203">
        <ele>567.8</ele>
        <time>2024-05-12T09:39:40Z</time>
      </trkpt>
      <trkpt lat="44.93439" lon="4.73193">
        <ele>569.24</ele>
        <time>2024-05-12T09:39:54Z</time>
      </trkpt>
      <trkpt lat="44.93464" lon="4.73179">
        <ele>570.2</ele>
        <time>2024-05-12T09:40:12Z</time>
      </trkpt>
      <trkpt lat="44.93487" lon="4.73168">
        <ele>569.72</ele>
        <time>2024-05-12T09:40:29Z</time>
      </trkpt>
      <trkpt lat="44.93512" lon="4.73158">
        <ele>565.87</ele>
        <time>2024-05-12T09:40:46Z</time>
      </trkpt>
      <trkpt lat="44.93543" lon="4.73155">
        <ele>561.07</ele>
        <time>2024-05-12T09:41:05Z</time>
      </trkpt>
      <trkpt lat="44.93572" lon="4.73153">
        <ele>553.86</ele>
        <time>2024-05-12T09:41:25Z</time>
      </trkpt>
      <trkpt lat="44.93604" lon="4.73157">
        <ele>550.97</ele>
        <time>2024-05-12T09:41:43Z</time>
      </trkpt>
      <trkpt lat="44.93632" lon="4.73158">
        <ele>545.69</ele>
        <time>2024-05-12T09:42:02Z</time>
      </trkpt>
      <trkpt lat="44.93656" lon="4.73134">
        <ele>543.28</ele>
        <time>2024-05-12T09:42:21Z</time>
      </trkpt>
      <trkpt lat="44.93679" lon="4.73108">
        <ele>539.92</ele>
        <time>2024-05-12T09:42:41Z</time>
      </trkpt>
      <trkpt lat="44.93685" lon="4.73108">
        <ele>538.48</ele>
        <time>2024-05-12T09:42:51Z</time>
      </trkpt>
      <trkpt lat="44.93686" lon="4.73109">
        <ele>538.48</ele>
        <time>2024-05-12T09:42:52Z</time>
      </trkpt>
      <trkpt lat="44.93696" lon="4.73135">
        <ele>535.59</ele>
        <time>2024-05-12T09:43:07Z</time>
      </trkpt>
      <trkpt lat="44.93706" lon="4.73151">
        <ele>532.71</ele>
        <time>2024-05-12T09:43:19Z</time>
      </trkpt>
      <trkpt lat="44.93708" lon="4.73152">
        <ele>532.71</ele>
        <time>2024-05-12T09:43:20Z</time>
      </trkpt>
      <trkpt lat="44.93709" lon="4.73153">
        <ele>532.71</ele>
        <time>2024-05-12T09:43:21Z</time>
      </trkpt>
      <trkpt lat="44.93743" lon="4.73167">
        <ele>529.82</ele>
        <time>2024-05-12T09:43:43Z</time>
      </trkpt>
      <trkpt lat="44.93776" lon="4.73172">
        <ele>528.86</ele>
        <time>2024-05-12T09:44:05Z</time>
      </trkpt>
      <trkpt lat="44.93812" lon="4.73176">
        <ele>525.5</ele>
        <time>2024-05-12T09:44:30Z</time>
      </trkpt>
      <trkpt lat="44.93843" lon="4.73161">
        <ele>521.65</ele>
        <time>2024-05-12T09:44:51Z</time>
      </trkpt>
      <trkpt lat="44.93872" lon="4.73136">
        <ele>519.73</ele>
        <time>2024-05-12T09:45:13Z</time>
      </trkpt>
      <trkpt lat="44.93884" lon="4.73132">
        <ele>516.85</ele>
        <time>2024-05-12T09:45:26Z</time>
      </trkpt>
      <trkpt lat="44.93916" lon="4.73113">
        <ele>519.73</ele>
        <time>2024-05-12T09:45:48Z</time>
      </trkpt>
      <trkpt lat="44.93946" lon="4.731">
        <ele>519.25</ele>
        <time>2024-05-12T09:46:08Z</time>
      </trkpt>
      <trkpt lat="44.93972" lon="4.73097">
        <ele>522.61</ele>
        <time>2024-05-12T09:46:24Z</time>
      </trkpt>
      <trkpt lat="44.94007" lon="4.73099">
        <ele>525.98</ele>
        <time>2024-05-12T09:46:45Z</time>
      </trkpt>
      <trkpt lat="44.94037" lon="4.73091">
        <ele>528.38</ele>
        <time>2024-05-12T09:47:04Z</time>
      </trkpt>
      <trkpt lat="44.94075" lon="4.73077">
        <ele>529.82</ele>
        <time>2024-05-12T09:47:28Z</time>
      </trkpt>
      <trkpt lat="44.9411" lon="4.73066">
        <ele>531.27</ele>
        <time>2024-05-12T09:47:51Z</time>
      </trkpt>
      <trkpt lat="44.94145" lon="4.73051">
        <ele>533.19</ele>
        <time>2024-05-12T09:48:13Z</time>
      </trkpt>
      <trkpt lat="44.94176" lon="4.73038">
        <ele>534.15</ele>
        <time>2024-05-12T09:48:32Z</time>
      </trkpt>
      <trkpt lat="44.94205" lon="4.73022">
        <ele>536.55</ele>
        <time>2024-05-12T09:48:51Z</time>
      </trkpt>
      <trkpt lat="44.9424" lon="4.73002">
        <ele>538.96</ele>
        <time>2024-05-12T09:49:16Z</time>
      </trkpt>
      <trkpt lat="44.94272" lon="4.72981">
        <ele>541.84</ele>
        <time>2024-05-12T09:49:36Z</time>
      </trkpt>
      <trkpt lat="44.94309" lon="4.72954">
        <ele>543.76</ele>
        <time>2024-05-12T09:50:00Z</time>
      </trkpt>
      <trkpt lat="44.94337" lon="4.72929">
        <ele>544.72</ele>
        <time>2024-05-12T09:50:18Z</time>
      </trkpt>
      <trkpt lat="44.94346" lon="4.72915">
        <ele>547.61</ele>
        <time>2024-05-12T09:50:31Z</time>
      </trkpt>
      <trkpt lat="44.94346" lon="4.72913">
        <ele>547.61</ele>
        <time>2024-05-12T09:50:32Z</time>
      </trkpt>
      <trkpt lat="44.94346" lon="4.72911">
        <ele>547.61</ele>
        <time>2024-05-12T09:50:33Z</time>
      </trkpt>
      <trkpt lat="44.94346" lon="4.72909">
        <ele>548.09</ele>
        <time>2024-05-12T09:50:34Z</time>
      </trkpt>
      <trkpt lat="44.94346" lon="4.72907">
        <ele>548.57</ele>
        <time>2024-05-12T09:50:35Z</time>
      </trkpt>
      <trkpt lat="44.94345" lon="4.72859">
        <ele>550.01</ele>
        <time>2024-05-12T09:50:56Z</time>
      </trkpt>
      <trkpt lat="44.94354" lon="4.72814">
        <ele>549.53</ele>
        <time>2024-05-12T09:51:17Z</time>
      </trkpt>
      <trkpt lat="44.94358" lon="4.72766">
        <ele>551.45</ele>
        <time>2024-05-12T09:51:38Z</time>
      </trkpt>
      <trkpt lat="44.94349" lon="4.72722">
        <ele>552.41</ele>
        <time>2024-05-12T09:51:58Z</time>
      </trkpt>
      <trkpt lat="44.94345" lon="4.72723">
        <ele>554.34</ele>
        <time>2024-05-12T09:52:13Z</time>
      </trkpt>
      <trkpt lat="44.94353" lon="4.72767">
        <ele>554.34</ele>
        <time>2024-05-12T09:52:35Z</time>
      </trkpt>
      <trkpt lat="44.94374" lon="4.72805">
        <ele>556.26</ele>
        <time>2024-05-12T09:52:58Z</time>
      </trkpt>
      <trkpt lat="44.94387" lon="4.72833">
        <ele>556.74</ele>
        <time>2024-05-12T09:53:15Z</time>
      </trkpt>
      <trkpt lat="44.94403" lon="4.72864">
        <ele>558.18</ele>
        <time>2024-05-12T09:53:33Z</time>
      </trkpt>
      <trkpt lat="44.94419" lon="4.72886">
        <ele>558.66</ele>
        <time>2024-05-12T09:53:50Z</time>
      </trkpt>
      <trkpt lat="44.94438" lon="4.72908">
        <ele>556.26</ele>
        <time>2024-05-12T09:54:09Z</time>
      </trkpt>
      <trkpt lat="44.9445" lon="4.72933">
        <ele>555.78</ele>
        <time>2024-05-12T09:54:26Z</time>
      </trkpt>
      <trkpt lat="44.9445" lon="4.72933">
        <ele>555.3</ele>
        <time>2024-05-12T09:54:27Z</time>
      </trkpt>
      <trkpt lat="44.94458" lon="4.72933">
        <ele>554.82</ele>
        <time>2024-05-12T09:54:34Z</time>
      </trkpt>
      <trkpt lat="44.94462" lon="4.72928">
        <ele>553.86</ele>
        <time>2024-05-12T09:54:39Z</time>
      </trkpt>
      <trkpt lat="44.94463" lon="4.72927">
        <ele>553.86</ele>
        <time>2024-05-12T09:54:40Z</time>
      </trkpt>
      <trkpt lat="44.94464" lon="4.72925">
        <ele>553.86</ele>
        <time>2024-05-12T09:54:41Z</time>
      </trkpt>
      <trkpt lat="44.94475" lon="4.72909">
        <ele>553.38</ele>
        <time>2024-05-12T09:54:54Z</time>
      </trkpt>
      <trkpt lat="44.94476" lon="4.72909">
        <ele>553.38</ele>
        <time>2024-05-12T09:54:55Z</time>
      </trkpt>
      <trkpt lat="44.94502" lon="4.72911">
        <ele>555.78</ele>
        <time>2024-05-12T09:55:14Z</time>
      </trkpt>
      <trkpt lat="44.94529" lon="4.72907">
        <ele>557.22</ele>
        <time>2024-05-12T09:55:34Z</time>
      </trkpt>
      <trkpt lat="44.94547" lon="4.7287">
        <ele>558.18</ele>
        <time>2024-05-12T09:55:54Z</time>
      </trkpt>
      <trkpt lat="44.94567" lon="4.72842">
        <ele>561.07</ele>
        <time>2024-05-12T09:56:13Z</time>
      </trkpt>
      <trkpt lat="44.94593" lon="4.72829">
        <ele>562.51</ele>
        <time>2024-05-12T09:56:31Z</time>
      </trkpt>
      <trkpt lat="44.94633" lon="4.72821">
        <ele>561.07</ele>
        <time>2024-05-12T09:56:57Z</time>
      </trkpt>
      <trkpt lat="44.94663" lon="4.72821">
        <ele>557.7</ele>
        <time>2024-05-12T09:57:17Z</time>
      </trkpt>
      <trkpt lat="44.94688" lon="4.72819">
        <ele>553.38</ele>
        <time>2024-05-12T09:57:36Z</time>
      </trkpt>
      <trkpt lat="44.94715" lon="4.72821">
        <ele>553.86</ele>
        <time>2024-05-12T09:57:52Z</time>
      </trkpt>
      <trkpt lat="44.94737" lon="4.72822">
        <ele>550.49</ele>
        <time>2024-05-12T09:58:08Z</time>
      </trkpt>
      <trkpt lat="44.9477" lon="4.72814">
        <ele>555.78</ele>
        <time>2024-05-12T09:58:26Z</time>
      </trkpt>
      <trkpt lat="44.94796" lon="4.728">
        <ele>556.74</ele>
        <time>2024-05-12T09:58:43Z</time>
      </trkpt>
      <trkpt lat="44.9482" lon="4.72783">
        <ele>556.26</ele>
        <time>2024-05-12T09:59:02Z</time>
      </trkpt>
      <trkpt lat="44.94841" lon="4.72769">
        <ele>556.74</ele>
        <time>2024-05-12T09:59:19Z</time>
      </trkpt>
      <trkpt lat="44.94863" lon="4.72751">
        <ele>555.78</ele>
        <time>2024-05-12T09:59:37Z</time>
      </trkpt>
      <trkpt lat="44.94886" lon="4.72732">
        <ele>552.9</ele>
        <time>2024-05-12T09:59:54Z</time>
      </trkpt>
      <trkpt lat="44.94909" lon="4.72706">
        <ele>555.3</ele>
        <time>2024-05-12T10:00:12Z</time>
      </trkpt>
      <trkpt lat="44.94916" lon="4.72693">
        <ele>558.18</ele>
        <time>2024-05-12T10:00:26Z</time>
      </trkpt>
      <trkpt lat="44.94929" lon="4.72682">
        <ele>561.55</ele>
        <time>2024-05-12T10:00:39Z</time>
      </trkpt>
      <trkpt lat="44.94951" lon="4.72664">
        <ele>565.87</ele>
        <time>2024-05-12T10:00:56Z</time>
      </trkpt>
      <trkpt lat="44.94962" lon="4.72656">
        <ele>567.8</ele>
        <time>2024-05-12T10:01:09Z</time>
      </trkpt>
      <trkpt lat="44.94985" lon="4.72638">
        <ele>573.08</ele>
        <time>2024-05-12T10:01:30Z</time>
      </trkpt>
      <trkpt lat="44.94993" lon="4.72631">
        <ele>573.56</ele>
        <time>2024-05-12T10:01:50Z</time>
      </trkpt>
      <trkpt lat="44.95014" lon="4.72603">
        <ele>576.45</ele>
        <time>2024-05-12T10:02:09Z</time>
      </trkpt>
      <trkpt lat="44.95027" lon="4.72575">
        <ele>578.37</ele>
        <time>2024-05-12T10:02:25Z</time>
      </trkpt>
      <trkpt lat="44.95029" lon="4.7257">
        <ele>578.85</ele>
        <time>2024-05-12T10:02:28Z</time>
      </trkpt>
      <trkpt lat="44.95029" lon="4.72568">
        <ele>578.85</ele>
        <time>2024-05-12T10:02:29Z</time>
      </trkpt>
      <trkpt lat="44.9503" lon="4.72566">
        <ele>579.33</ele>
        <time>2024-05-12T10:02:30Z</time>
      </trkpt>
      <trkpt lat="44.9504" lon="4.72546">
        <ele>580.77</ele>
        <time>2024-05-12T10:02:48Z</time>
      </trkpt>
      <trkpt lat="44.95043" lon="4.72545">
        <ele>581.73</ele>
        <time>2024-05-12T10:03:01Z</time>
      </trkpt>
      <trkpt lat="44.95051" lon="4.72523">
        <ele>583.66</ele>
        <time>2024-05-12T10:03:17Z</time>
      </trkpt>
      <trkpt lat="44.95054" lon="4.7251">
        <ele>587.5</ele>
        <time>2024-05-12T10:03:38Z</time>
      </trkpt>
      <trkpt lat="44.95055" lon="4.72506">
        <ele>587.98</ele>
        <time>2024-05-12T10:04:03Z</time>
      </trkpt>
      <trkpt lat="44.95064" lon="4.72488">
        <ele>588.46</ele>
        <time>2024-05-12T10:04:19Z</time>
      </trkpt>
      <trkpt lat="44.95067" lon="4.7248">
        <ele>588.95</ele>
        <time>2024-05-12T10:04:24Z</time>
      </trkpt>
      <trkpt lat="44.95065" lon="4.72465">
        <ele>589.43</ele>
        <time>2024-05-12T10:04:41Z</time>
      </trkpt>
      <trkpt lat="44.95067" lon="4.72454">
        <ele>592.31</ele>
        <time>2024-05-12T10:05:09Z</time>
      </trkpt>
      <trkpt lat="44.95072" lon="4.72453">
        <ele>594.23</ele>
        <time>2024-05-12T10:05:38Z</time>
      </trkpt>
      <trkpt lat="44.95074" lon="4.72453">
        <ele>589.91</ele>
        <time>2024-05-12T10:06:07Z</time>
      </trkpt>
      <trkpt lat="44.95073" lon="4.7245">
        <ele>587.02</ele>
        <time>2024-05-12T10:06:38Z</time>
      </trkpt>
      <trkpt lat="44.95075" lon="4.72439">
        <ele>587.02</ele>
        <time>2024-05-12T10:06:57Z</time>
      </trkpt>
      <trkpt lat="44.95072" lon="4.72439">
        <ele>587.98</ele>
        <time>2024-05-12T10:07:18Z</time>
      </trkpt>
      <trkpt lat="44.95075" lon="4.72445">
        <ele>585.1</ele>
        <time>2024-05-12T10:07:42Z</time>
      </trkpt>
      <trkpt lat="44.95073" lon="4.72443">
        <ele>587.98</ele>
        <time>2024-05-12T10:08:00Z</time>
      </trkpt>
      <trkpt lat="44.95068" lon="4.72455">
        <ele>588.46</ele>
        <time>2024-05-12T10:08:22Z</time>
      </trkpt>
      <trkpt lat="44.95069" lon="4.72454">
        <ele>589.91</ele>
        <time>2024-05-12T10:08:45Z</time>
      </trkpt>
      <trkpt lat="44.95071" lon="4.72461">
        <ele>592.31</ele>
        <time>2024-05-12T10:09:08Z</time>
      </trkpt>
      <trkpt lat="44.95064" lon="4.72451">
        <ele>591.35</ele>
        <time>2024-05-12T10:09:29Z</time>
      </trkpt>
      <trkpt lat="44.95047" lon="4.72425">
        <ele>585.1</ele>
        <time>2024-05-12T10:09:45Z</time>
      </trkpt>
      <trkpt lat="44.95045" lon="4.72423">
        <ele>584.62</ele>
        <time>2024-05-12T10:09:46Z</time>
      </trkpt>
      <trkpt lat="44.95039" lon="4.72417">
        <ele>587.02</ele>
        <time>2024-05-12T10:10:01Z</time>
      </trkpt>
      <trkpt lat="44.95034" lon="4.72406">
        <ele>589.91</ele>
        <time>2024-05-12T10:10:28Z</time>
      </trkpt>
      <trkpt lat="44.95014" lon="4.72386">
        <ele>589.43</ele>
        <time>2024-05-12T10:10:45Z</time>
      </trkpt>
      <trkpt lat="44.94995" lon="4.72369">
        <ele>589.91</ele>
        <time>2024-05-12T10:11:01Z</time>
      </trkpt>
      <trkpt lat="44.94969" lon="4.72342">
        <ele>592.79</ele>
        <time>2024-05-12T10:11:21Z</time>
      </trkpt>
      <trkpt lat="44.94952" lon="4.72301">
        <ele>597.6</ele>
        <time>2024-05-12T10:11:43Z</time>
      </trkpt>
      <trkpt lat="44.94928" lon="4.72257">
        <ele>601.92</ele>
        <time>2024-05-12T10:12:08Z</time>
      </trkpt>
      <trkpt lat="44.94915" lon="4.72205">
        <ele>603.85</ele>
        <time>2024-05-12T10:12:32Z</time>
      </trkpt>
      <trkpt lat="44.94911" lon="4.72157">
        <ele>603.85</ele>
        <time>2024-05-12T10:12:53Z</time>
      </trkpt>
      <trkpt lat="44.94917" lon="4.72118">
        <ele>605.29</ele>
        <time>2024-05-12T10:13:10Z</time>
      </trkpt>
      <trkpt lat="44.94938" lon="4.72105">
        <ele>606.73</ele>
        <time>2024-05-12T10:13:24Z</time>
      </trkpt>
      <trkpt lat="44.94969" lon="4.72091">
        <ele>611.54</ele>
        <time>2024-05-12T10:13:44Z</time>
      </trkpt>
      <trkpt lat="44.94991" lon="4.72086">
        <ele>614.9</ele>
        <time>2024-05-12T10:14:00Z</time>
      </trkpt>
      <trkpt lat="44.95011" lon="4.72071">
        <ele>618.26</ele>
        <time>2024-05-12T10:14:16Z</time>
      </trkpt>
      <trkpt lat="44.95036" lon="4.72045">
        <ele>621.63</ele>
        <time>2024-05-12T10:14:38Z</time>
      </trkpt>
      <trkpt lat="44.95062" lon="4.72008">
        <ele>624.03</ele>
        <time>2024-05-12T10:15:02Z</time>
      </trkpt>
      <trkpt lat="44.95091" lon="4.7197">
        <ele>625.96</ele>
        <time>2024-05-12T10:15:28Z</time>
      </trkpt>
      <trkpt lat="44.9512" lon="4.71943">
        <ele>625.47</ele>
        <time>2024-05-12T10:15:51Z</time>
      </trkpt>
      <trkpt lat="44.95154" lon="4.7192">
        <ele>621.15</ele>
        <time>2024-05-12T10:16:13Z</time>
      </trkpt>
      <trkpt lat="44.95173" lon="4.71882">
        <ele>619.23</ele>
        <time>2024-05-12T10:16:32Z</time>
      </trkpt>
      <trkpt lat="44.95194" lon="4.71857">
        <ele>617.3</ele>
        <time>2024-05-12T10:16:48Z</time>
      </trkpt>
      <trkpt lat="44.95217" lon="4.71849">
        <ele>612.98</ele>
        <time>2024-05-12T10:17:03Z</time>
      </trkpt>
      <trkpt lat="44.95245" lon="4.71836">
        <ele>611.54</ele>
        <time>2024-05-12T10:17:21Z</time>
      </trkpt>
      <trkpt lat="44.95276" lon="4.71845">
        <ele>613.46</ele>
        <time>2024-05-12T10:17:41Z</time>
      </trkpt>
      <trkpt lat="44.95302" lon="4.71839">
        <ele>614.9</ele>
        <time>2024-05-12T10:17:55Z</time>
      </trkpt>
      <trkpt lat="44.95323" lon="4.71815">
        <ele>618.75</ele>
        <time>2024-05-12T10:18:12Z</time>
      </trkpt>
      <trkpt lat="44.95338" lon="4.7181">
        <ele>619.23</ele>
        <time>2024-05-12T10:18:24Z</time>
      </trkpt>
      <trkpt lat="44.9534" lon="4.71812">
        <ele>619.23</ele>
        <time>2024-05-12T10:18:25Z</time>
      </trkpt>
      <trkpt lat="44.95341" lon="4.71813">
        <ele>619.23</ele>
        <time>2024-05-12T10:18:26Z</time>
      </trkpt>
      <trkpt lat="44.9537" lon="4.71836">
        <ele>615.38</ele>
        <time>2024-05-12T10:18:46Z</time>
      </trkpt>
      <trkpt lat="44.95393" lon="4.71854">
        <ele>613.94</ele>
        <time>2024-05-12T10:19:03Z</time>
      </trkpt>
      <trkpt lat="44.9542" lon="4.71879">
        <ele>612.02</ele>
        <time>2024-05-12T10:19:24Z</time>
      </trkpt>
      <trkpt lat="44.95421" lon="4.7188">
        <ele>612.5</ele>
        <time>2024-05-12T10:19:25Z</time>
      </trkpt>
      <trkpt lat="44.95422" lon="4.71881">
        <ele>612.5</ele>
        <time>2024-05-12T10:19:26Z</time>
      </trkpt>
      <trkpt lat="44.95422" lon="4.71883">
        <ele>612.02</ele>
        <time>2024-05-12T10:19:27Z</time>
      </trkpt>
      <trkpt lat="44.95423" lon="4.71884">
        <ele>612.02</ele>
        <time>2024-05-12T10:19:28Z</time>
      </trkpt>
      <trkpt lat="44.95424" lon="4.71886">
        <ele>611.54</ele>
        <time>2024-05-12T10:19:29Z</time>
      </trkpt>
      <trkpt lat="44.95425" lon="4.71888">
        <ele>611.54</ele>
        <time>2024-05-12T10:19:30Z</time>
      </trkpt>
      <trkpt lat="44.95426" lon="4.71889">
        <ele>611.54</ele>
        <time>2024-05-12T10:19:31Z</time>
      </trkpt>
      <trkpt lat="44.95452" lon="4.71924">
        <ele>605.29</ele>
        <time>2024-05-12T10:19:54Z</time>
      </trkpt>
      <trkpt lat="44.95478" lon="4.71962">
        <ele>605.29</ele>
        <time>2024-05-12T10:20:18Z</time>
      </trkpt>
      <trkpt lat="44.95504" lon="4.72003">
        <ele>604.33</ele>
        <time>2024-05-12T10:20:42Z</time>
      </trkpt>
      <trkpt lat="44.95521" lon="4.72028">
        <ele>602.4</ele>
        <time>2024-05-12T10:20:58Z</time>
      </trkpt>
      <trkpt lat="44.95522" lon="4.72028">
        <ele>602.4</ele>
        <time>2024-05-12T10:20:59Z</time>
      </trkpt>
      <trkpt lat="44.95524" lon="4.72027">
        <ele>601.92</ele>
        <time>2024-05-12T10:21:00Z</time>
      </trkpt>
      <trkpt lat="44.95525" lon="4.72027">
        <ele>601.92</ele>
        <time>2024-05-12T10:21:01Z</time>
      </trkpt>
      <trkpt lat="44.95526" lon="4.72025">
        <ele>601.44</ele>
        <time>2024-05-12T10:21:02Z</time>
      </trkpt>
      <trkpt lat="44.95527" lon="4.72024">
        <ele>601.44</ele>
        <time>2024-05-12T10:21:03Z</time>
      </trkpt>
      <trkpt lat="44.95528" lon="4.72023">
        <ele>601.44</ele>
        <time>2024-05-12T10:21:04Z</time>
      </trkpt>
      <trkpt lat="44.95546" lon="4.71991">
        <ele>597.6</ele>
        <time>2024-05-12T10:21:23Z</time>
      </trkpt>
      <trkpt lat="44.95557" lon="4.71976">
        <ele>595.19</ele>
        <time>2024-05-12T10:21:33Z</time>
      </trkpt>
      <trkpt lat="44.95581" lon="4.71952">
        <ele>588.95</ele>
        <time>2024-05-12T10:21:54Z</time>
      </trkpt>
      <trkpt lat="44.95612" lon="4.71933">
        <ele>580.77</ele>
        <time>2024-05-12T10:22:20Z</time>
      </trkpt>
      <trkpt lat="44.95648" lon="4.71917">
        <ele>577.89</ele>
        <time>2024-05-12T10:22:42Z</time>
      </trkpt>
      <trkpt lat="44.95682" lon="4.71905">
        <ele>575.49</ele>
        <time>2024-05-12T10:23:07Z</time>
      </trkpt>
      <trkpt lat="44.95713" lon="4.71881">
        <ele>575.97</ele>
        <time>2024-05-12T10:23:31Z</time>
      </trkpt>
      <trkpt lat="44.95738" lon="4.71856">
        <ele>573.08</ele>
        <time>2024-05-12T10:23:51Z</time>
      </trkpt>
      <trkpt lat="44.95767" lon="4.71828">
        <ele>569.24</ele>
        <time>2024-05-12T10:24:16Z</time>
      </trkpt>
      <trkpt lat="44.95772" lon="4.71807">
        <ele>564.43</ele>
        <time>2024-05-12T10:24:27Z</time>
      </trkpt>
      <trkpt lat="44.95768" lon="4.71795">
        <ele>560.11</ele>
        <time>2024-05-12T10:24:42Z</time>
      </trkpt>
      <trkpt lat="44.95763" lon="4.71775">
        <ele>560.59</ele>
        <time>2024-05-12T10:24:57Z</time>
      </trkpt>
      <trkpt lat="44.95752" lon="4.71744">
        <ele>558.18</ele>
        <time>2024-05-12T10:25:14Z</time>
      </trkpt>
      <trkpt lat="44.95738" lon="4.71715">
        <ele>555.3</ele>
        <time>2024-05-12T10:25:33Z</time>
      </trkpt>
      <trkpt lat="44.95721" lon="4.71692">
        <ele>552.41</ele>
        <time>2024-05-12T10:25:52Z</time>
      </trkpt>
      <trkpt lat="44.95696" lon="4.71658">
        <ele>550.97</ele>
        <time>2024-05-12T10:26:14Z</time>
      </trkpt>
      <trkpt lat="44.95676" lon="4.71626">
        <ele>548.57</ele>
        <time>2024-05-12T10:26:31Z</time>
      </trkpt>
      <trkpt lat="44.95658" lon="4.71597">
        <ele>546.17</ele>
        <time>2024-05-12T10:26:49Z</time>
      </trkpt>
      <trkpt lat="44.95642" lon="4.71573">
        <ele>545.69</ele>
        <time>2024-05-12T10:27:04Z</time>
      </trkpt>
      <trkpt lat="44.95644" lon="4.71553">
        <ele>547.61</ele>
        <time>2024-05-12T10:27:21Z</time>
      </trkpt>
      <trkpt lat="44.95641" lon="4.7155">
        <ele>550.49</ele>
        <time>2024-05-12T10:27:51Z</time>
      </trkpt>
      <trkpt lat="44.95641" lon="4.71548">
        <ele>551.45</ele>
        <time>2024-05-12T10:28:23Z</time>
      </trkpt>
      <trkpt lat="44.9564" lon="4.71547">
        <ele>552.41</ele>
        <time>2024-05-12T10:28:54Z</time>
      </trkpt>
      <trkpt lat="44.9564" lon="4.71547">
        <ele>552.41</ele>
        <time>2024-05-12T10:28:55Z</time>
      </trkpt>
      <trkpt lat="44.95613" lon="4.71542">
        <ele>551.93</ele>
        <time>2024-05-12T10:29:15Z</time>
      </trkpt>
      <trkpt lat="44.9558" lon="4.71535">
        <ele>552.9</ele>
        <time>2024-05-12T10:29:37Z</time>
      </trkpt>
      <trkpt lat="44.95547" lon="4.71526">
        <ele>554.82</ele>
        <time>2024-05-12T10:30:00Z</time>
      </trkpt>
      <trkpt lat="44.95514" lon="4.71517">
        <ele>556.74</ele>
        <time>2024-05-12T10:30:23Z</time>
      </trkpt>
      <trkpt lat="44.9549" lon="4.71491">
        <ele>556.74</ele>
        <time>2024-05-12T10:30:43Z</time>
      </trkpt>
      <trkpt lat="44.95477" lon="4.71462">
        <ele>558.66</ele>
        <time>2024-05-12T10:31:06Z</time>
      </trkpt>
      <trkpt lat="44.95477" lon="4.71455">
        <ele>557.22</ele>
        <time>2024-05-12T10:31:32Z</time>
      </trkpt>
      <trkpt lat="44.9548" lon="4.71459">
        <ele>557.7</ele>
        <time>2024-05-12T10:31:53Z</time>
      </trkpt>
      <trkpt lat="44.95481" lon="4.71459">
        <ele>559.14</ele>
        <time>2024-05-12T10:32:19Z</time>
      </trkpt>
      <trkpt lat="44.95484" lon="4.71461">
        <ele>557.7</ele>
        <time>2024-05-12T10:32:48Z</time>
      </trkpt>
      <trkpt lat="44.95485" lon="4.71458">
        <ele>559.14</ele>
        <time>2024-05-12T10:33:11Z</time>
      </trkpt>
      <trkpt lat="44.95478" lon="4.71456">
        <ele>560.59</ele>
        <time>2024-05-12T10:33:33Z</time>
      </trkpt>
      <trkpt lat="44.95478" lon="4.71457">
        <ele>562.99</ele>
        <time>2024-05-12T10:33:58Z</time>
      </trkpt>
      <trkpt lat="44.95474" lon="4.71455">
        <ele>566.35</ele>
        <time>2024-05-12T10:34:22Z</time>
        <extensions>
          <visugpx:TrkExtension xmlns:visugpx="https://www.visugpx.com/editgpx/">
            <visugpx:node>1</visugpx:node>
            </visugpx:TrkExtension>
        </extensions>
      </trkpt>
    </trkseg>
  </trk>
</gpx>